<?xml version="1.0" encoding="UTF-8" standalone="no" ?>
<gpx xmlns="http://www.topografix.com/GPX/1/1" xmlns:xsi="http://www.w3.org/2001/XMLSchema-instance" xsi:schemaLocation="http://www.topografix.com/GPX/1/1 http://www.topografix.com/GPX/1/1/gpx.xsd" version="1.1" creator="VisuGPX - https://www.visugpx.com">
  <metadata>
    <name>pont Sénégats - Saint Jean Del Frech</name>
    <desc><![CDATA[réalisée
]]></desc>
  </metadata>
  <trk>
    <name><![CDATA[2020-03-27-01]]></name>
    <trkseg>
      <trkpt lat="43.73776" lon="2.47359">
        <ele>436.3</ele>
        <time>2020-03-27T09:31:34Z</time>
      </trkpt>
      <trkpt lat="43.73776" lon="2.47359">
        <ele>436.3</ele>
        <time>2020-03-27T09:31:35Z</time>
      </trkpt>
      <trkpt lat="43.73783" lon="2.47368">
        <ele>436.8</ele>
        <time>2020-03-27T09:31:51Z</time>
      </trkpt>
      <trkpt lat="43.73782" lon="2.47381">
        <ele>437.1</ele>
        <time>2020-03-27T09:31:59Z</time>
      </trkpt>
      <trkpt lat="43.73782" lon="2.47394">
        <ele>437.1</ele>
        <time>2020-03-27T09:32:05Z</time>
      </trkpt>
      <trkpt lat="43.73782" lon="2.47409">
        <ele>436.4</ele>
        <time>2020-03-27T09:32:09Z</time>
      </trkpt>
      <trkpt lat="43.73783" lon="2.47422">
        <ele>435.6</ele>
        <time>2020-03-27T09:32:12Z</time>
      </trkpt>
      <trkpt lat="43.73786" lon="2.47438">
        <ele>434.5</ele>
        <time>2020-03-27T09:32:16Z</time>
      </trkpt>
      <trkpt lat="43.73776" lon="2.47441">
        <ele>432.4</ele>
        <time>2020-03-27T09:32:23Z</time>
      </trkpt>
      <trkpt lat="43.73766" lon="2.47435">
        <ele>430.2</ele>
        <time>2020-03-27T09:32:26Z</time>
      </trkpt>
      <trkpt lat="43.73753" lon="2.47432">
        <ele>425</ele>
        <time>2020-03-27T09:32:29Z</time>
      </trkpt>
      <trkpt lat="43.73744" lon="2.47431">
        <ele>422.5</ele>
        <time>2020-03-27T09:32:31Z</time>
      </trkpt>
      <trkpt lat="43.73734" lon="2.47432">
        <ele>420.8</ele>
        <time>2020-03-27T09:32:33Z</time>
      </trkpt>
      <trkpt lat="43.73725" lon="2.47433">
        <ele>419.6</ele>
        <time>2020-03-27T09:32:35Z</time>
      </trkpt>
      <trkpt lat="43.73716" lon="2.47435">
        <ele>418.7</ele>
        <time>2020-03-27T09:32:37Z</time>
      </trkpt>
      <trkpt lat="43.73707" lon="2.47437">
        <ele>418.1</ele>
        <time>2020-03-27T09:32:39Z</time>
      </trkpt>
      <trkpt lat="43.73698" lon="2.4744">
        <ele>417.4</ele>
        <time>2020-03-27T09:32:41Z</time>
      </trkpt>
      <trkpt lat="43.73686" lon="2.47444">
        <ele>416.6</ele>
        <time>2020-03-27T09:32:44Z</time>
      </trkpt>
      <trkpt lat="43.73677" lon="2.47448">
        <ele>416.2</ele>
        <time>2020-03-27T09:32:47Z</time>
      </trkpt>
      <trkpt lat="43.73667" lon="2.47447">
        <ele>414.8</ele>
        <time>2020-03-27T09:32:50Z</time>
      </trkpt>
      <trkpt lat="43.73656" lon="2.47451">
        <ele>413.7</ele>
        <time>2020-03-27T09:32:53Z</time>
      </trkpt>
      <trkpt lat="43.73646" lon="2.47455">
        <ele>412.9</ele>
        <time>2020-03-27T09:32:56Z</time>
      </trkpt>
      <trkpt lat="43.73632" lon="2.47459">
        <ele>410</ele>
        <time>2020-03-27T09:32:59Z</time>
      </trkpt>
      <trkpt lat="43.73619" lon="2.47461">
        <ele>408.7</ele>
        <time>2020-03-27T09:33:02Z</time>
      </trkpt>
      <trkpt lat="43.73609" lon="2.47464">
        <ele>408</ele>
        <time>2020-03-27T09:33:04Z</time>
      </trkpt>
      <trkpt lat="43.73599" lon="2.47468">
        <ele>405</ele>
        <time>2020-03-27T09:33:06Z</time>
      </trkpt>
      <trkpt lat="43.73587" lon="2.47473">
        <ele>404</ele>
        <time>2020-03-27T09:33:08Z</time>
      </trkpt>
      <trkpt lat="43.73577" lon="2.47476">
        <ele>403.4</ele>
        <time>2020-03-27T09:33:10Z</time>
      </trkpt>
      <trkpt lat="43.73568" lon="2.4748">
        <ele>403.1</ele>
        <time>2020-03-27T09:33:12Z</time>
      </trkpt>
      <trkpt lat="43.73558" lon="2.47485">
        <ele>402.9</ele>
        <time>2020-03-27T09:33:14Z</time>
      </trkpt>
      <trkpt lat="43.73549" lon="2.47489">
        <ele>402.9</ele>
        <time>2020-03-27T09:33:16Z</time>
      </trkpt>
      <trkpt lat="43.7354" lon="2.47496">
        <ele>403.1</ele>
        <time>2020-03-27T09:33:18Z</time>
      </trkpt>
      <trkpt lat="43.7353" lon="2.47508">
        <ele>403.4</ele>
        <time>2020-03-27T09:33:21Z</time>
      </trkpt>
      <trkpt lat="43.73522" lon="2.47518">
        <ele>404.5</ele>
        <time>2020-03-27T09:33:23Z</time>
      </trkpt>
      <trkpt lat="43.73514" lon="2.47527">
        <ele>406.3</ele>
        <time>2020-03-27T09:33:25Z</time>
      </trkpt>
      <trkpt lat="43.73507" lon="2.47535">
        <ele>407.4</ele>
        <time>2020-03-27T09:33:27Z</time>
      </trkpt>
      <trkpt lat="43.73498" lon="2.47547">
        <ele>408.4</ele>
        <time>2020-03-27T09:33:30Z</time>
      </trkpt>
      <trkpt lat="43.73489" lon="2.47559">
        <ele>409.5</ele>
        <time>2020-03-27T09:33:33Z</time>
      </trkpt>
      <trkpt lat="43.73479" lon="2.47571">
        <ele>410.5</ele>
        <time>2020-03-27T09:33:36Z</time>
      </trkpt>
      <trkpt lat="43.7347" lon="2.47578">
        <ele>411.4</ele>
        <time>2020-03-27T09:33:39Z</time>
      </trkpt>
      <trkpt lat="43.73458" lon="2.47583">
        <ele>412.3</ele>
        <time>2020-03-27T09:33:42Z</time>
      </trkpt>
      <trkpt lat="43.73447" lon="2.47586">
        <ele>414.4</ele>
        <time>2020-03-27T09:33:44Z</time>
      </trkpt>
      <trkpt lat="43.73436" lon="2.47587">
        <ele>416.5</ele>
        <time>2020-03-27T09:33:46Z</time>
      </trkpt>
      <trkpt lat="43.73426" lon="2.47587">
        <ele>417.2</ele>
        <time>2020-03-27T09:33:48Z</time>
      </trkpt>
      <trkpt lat="43.73413" lon="2.47586">
        <ele>417.7</ele>
        <time>2020-03-27T09:33:51Z</time>
      </trkpt>
      <trkpt lat="43.73401" lon="2.4758">
        <ele>418.9</ele>
        <time>2020-03-27T09:33:54Z</time>
      </trkpt>
      <trkpt lat="43.73393" lon="2.47573">
        <ele>420.8</ele>
        <time>2020-03-27T09:33:56Z</time>
      </trkpt>
      <trkpt lat="43.73385" lon="2.47565">
        <ele>422.3</ele>
        <time>2020-03-27T09:33:58Z</time>
      </trkpt>
      <trkpt lat="43.73377" lon="2.47556">
        <ele>423.6</ele>
        <time>2020-03-27T09:34:00Z</time>
      </trkpt>
      <trkpt lat="43.7337" lon="2.47548">
        <ele>424.7</ele>
        <time>2020-03-27T09:34:02Z</time>
      </trkpt>
      <trkpt lat="43.73362" lon="2.47536">
        <ele>426.3</ele>
        <time>2020-03-27T09:34:04Z</time>
      </trkpt>
      <trkpt lat="43.73354" lon="2.47522">
        <ele>428</ele>
        <time>2020-03-27T09:34:07Z</time>
      </trkpt>
      <trkpt lat="43.73349" lon="2.47511">
        <ele>430.1</ele>
        <time>2020-03-27T09:34:09Z</time>
      </trkpt>
      <trkpt lat="43.73343" lon="2.47495">
        <ele>431.6</ele>
        <time>2020-03-27T09:34:12Z</time>
      </trkpt>
      <trkpt lat="43.73339" lon="2.4748">
        <ele>432</ele>
        <time>2020-03-27T09:34:15Z</time>
      </trkpt>
      <trkpt lat="43.73337" lon="2.47465">
        <ele>432.2</ele>
        <time>2020-03-27T09:34:18Z</time>
      </trkpt>
      <trkpt lat="43.73339" lon="2.47448">
        <ele>432.6</ele>
        <time>2020-03-27T09:34:21Z</time>
      </trkpt>
      <trkpt lat="43.73339" lon="2.47434">
        <ele>432.8</ele>
        <time>2020-03-27T09:34:23Z</time>
      </trkpt>
      <trkpt lat="43.7334" lon="2.4742">
        <ele>432.9</ele>
        <time>2020-03-27T09:34:25Z</time>
      </trkpt>
      <trkpt lat="43.73339" lon="2.47407">
        <ele>433.3</ele>
        <time>2020-03-27T09:34:27Z</time>
      </trkpt>
      <trkpt lat="43.7334" lon="2.47391">
        <ele>433.5</ele>
        <time>2020-03-27T09:34:30Z</time>
      </trkpt>
      <trkpt lat="43.73342" lon="2.47373">
        <ele>433.5</ele>
        <time>2020-03-27T09:34:33Z</time>
      </trkpt>
      <trkpt lat="43.73342" lon="2.47355">
        <ele>433.6</ele>
        <time>2020-03-27T09:34:36Z</time>
      </trkpt>
      <trkpt lat="43.73341" lon="2.47339">
        <ele>433.6</ele>
        <time>2020-03-27T09:34:39Z</time>
      </trkpt>
      <trkpt lat="43.7334" lon="2.47323">
        <ele>433.6</ele>
        <time>2020-03-27T09:34:42Z</time>
      </trkpt>
      <trkpt lat="43.73337" lon="2.47305">
        <ele>433.6</ele>
        <time>2020-03-27T09:34:45Z</time>
      </trkpt>
      <trkpt lat="43.73333" lon="2.4729">
        <ele>433.7</ele>
        <time>2020-03-27T09:34:48Z</time>
      </trkpt>
      <trkpt lat="43.73328" lon="2.47274">
        <ele>434.2</ele>
        <time>2020-03-27T09:34:51Z</time>
      </trkpt>
      <trkpt lat="43.73322" lon="2.47262">
        <ele>435</ele>
        <time>2020-03-27T09:34:53Z</time>
      </trkpt>
      <trkpt lat="43.73316" lon="2.4725">
        <ele>435.7</ele>
        <time>2020-03-27T09:34:55Z</time>
      </trkpt>
      <trkpt lat="43.73309" lon="2.47235">
        <ele>436.2</ele>
        <time>2020-03-27T09:34:58Z</time>
      </trkpt>
      <trkpt lat="43.73302" lon="2.47222">
        <ele>436.4</ele>
        <time>2020-03-27T09:35:00Z</time>
      </trkpt>
      <trkpt lat="43.73295" lon="2.47211">
        <ele>436.7</ele>
        <time>2020-03-27T09:35:02Z</time>
      </trkpt>
      <trkpt lat="43.73288" lon="2.472">
        <ele>437.1</ele>
        <time>2020-03-27T09:35:04Z</time>
      </trkpt>
      <trkpt lat="43.73281" lon="2.47192">
        <ele>437.3</ele>
        <time>2020-03-27T09:35:06Z</time>
      </trkpt>
      <trkpt lat="43.73273" lon="2.47187">
        <ele>437.8</ele>
        <time>2020-03-27T09:35:08Z</time>
      </trkpt>
      <trkpt lat="43.73263" lon="2.47184">
        <ele>438.2</ele>
        <time>2020-03-27T09:35:10Z</time>
      </trkpt>
      <trkpt lat="43.7325" lon="2.47183">
        <ele>438.2</ele>
        <time>2020-03-27T09:35:13Z</time>
      </trkpt>
      <trkpt lat="43.73237" lon="2.47185">
        <ele>438.2</ele>
        <time>2020-03-27T09:35:16Z</time>
      </trkpt>
      <trkpt lat="43.73227" lon="2.47187">
        <ele>438.3</ele>
        <time>2020-03-27T09:35:18Z</time>
      </trkpt>
      <trkpt lat="43.73219" lon="2.4719">
        <ele>438.4</ele>
        <time>2020-03-27T09:35:20Z</time>
      </trkpt>
      <trkpt lat="43.73207" lon="2.47195">
        <ele>438.7</ele>
        <time>2020-03-27T09:35:23Z</time>
      </trkpt>
      <trkpt lat="43.73195" lon="2.47199">
        <ele>438.8</ele>
        <time>2020-03-27T09:35:26Z</time>
      </trkpt>
      <trkpt lat="43.73185" lon="2.47203">
        <ele>438.9</ele>
        <time>2020-03-27T09:35:29Z</time>
      </trkpt>
      <trkpt lat="43.73175" lon="2.47207">
        <ele>438.9</ele>
        <time>2020-03-27T09:35:32Z</time>
      </trkpt>
      <trkpt lat="43.73161" lon="2.4721">
        <ele>438.8</ele>
        <time>2020-03-27T09:35:35Z</time>
      </trkpt>
      <trkpt lat="43.73152" lon="2.47211">
        <ele>438.7</ele>
        <time>2020-03-27T09:35:37Z</time>
      </trkpt>
      <trkpt lat="43.73142" lon="2.47209">
        <ele>438.9</ele>
        <time>2020-03-27T09:35:39Z</time>
      </trkpt>
      <trkpt lat="43.73133" lon="2.47206">
        <ele>439.3</ele>
        <time>2020-03-27T09:35:41Z</time>
      </trkpt>
      <trkpt lat="43.73124" lon="2.472">
        <ele>440</ele>
        <time>2020-03-27T09:35:43Z</time>
      </trkpt>
      <trkpt lat="43.73113" lon="2.47191">
        <ele>441.2</ele>
        <time>2020-03-27T09:35:46Z</time>
      </trkpt>
      <trkpt lat="43.73105" lon="2.47181">
        <ele>441.8</ele>
        <time>2020-03-27T09:35:48Z</time>
      </trkpt>
      <trkpt lat="43.73098" lon="2.4717">
        <ele>442.6</ele>
        <time>2020-03-27T09:35:50Z</time>
      </trkpt>
      <trkpt lat="43.73091" lon="2.4716">
        <ele>443.5</ele>
        <time>2020-03-27T09:35:52Z</time>
      </trkpt>
      <trkpt lat="43.73083" lon="2.47148">
        <ele>444.3</ele>
        <time>2020-03-27T09:35:54Z</time>
      </trkpt>
      <trkpt lat="43.73076" lon="2.47138">
        <ele>444.7</ele>
        <time>2020-03-27T09:35:56Z</time>
      </trkpt>
      <trkpt lat="43.73068" lon="2.47128">
        <ele>444.7</ele>
        <time>2020-03-27T09:35:58Z</time>
      </trkpt>
      <trkpt lat="43.73057" lon="2.47121">
        <ele>444.4</ele>
        <time>2020-03-27T09:36:00Z</time>
      </trkpt>
      <trkpt lat="43.73045" lon="2.47119">
        <ele>443.7</ele>
        <time>2020-03-27T09:36:02Z</time>
      </trkpt>
      <trkpt lat="43.73029" lon="2.4712">
        <ele>442.2</ele>
        <time>2020-03-27T09:36:04Z</time>
      </trkpt>
      <trkpt lat="43.73016" lon="2.47124">
        <ele>440.4</ele>
        <time>2020-03-27T09:36:06Z</time>
      </trkpt>
      <trkpt lat="43.73003" lon="2.47128">
        <ele>438.7</ele>
        <time>2020-03-27T09:36:08Z</time>
      </trkpt>
      <trkpt lat="43.72991" lon="2.47128">
        <ele>436.7</ele>
        <time>2020-03-27T09:36:10Z</time>
      </trkpt>
      <trkpt lat="43.7298" lon="2.47126">
        <ele>434.9</ele>
        <time>2020-03-27T09:36:12Z</time>
      </trkpt>
      <trkpt lat="43.72966" lon="2.4712">
        <ele>433.3</ele>
        <time>2020-03-27T09:36:14Z</time>
      </trkpt>
      <trkpt lat="43.72951" lon="2.4711">
        <ele>432.1</ele>
        <time>2020-03-27T09:36:16Z</time>
      </trkpt>
      <trkpt lat="43.72939" lon="2.47098">
        <ele>431.6</ele>
        <time>2020-03-27T09:36:18Z</time>
      </trkpt>
      <trkpt lat="43.72928" lon="2.47081">
        <ele>431.6</ele>
        <time>2020-03-27T09:36:20Z</time>
      </trkpt>
      <trkpt lat="43.72919" lon="2.47064">
        <ele>431.8</ele>
        <time>2020-03-27T09:36:22Z</time>
      </trkpt>
      <trkpt lat="43.7291" lon="2.47047">
        <ele>432.3</ele>
        <time>2020-03-27T09:36:24Z</time>
      </trkpt>
      <trkpt lat="43.72902" lon="2.47029">
        <ele>432.9</ele>
        <time>2020-03-27T09:36:26Z</time>
      </trkpt>
      <trkpt lat="43.72894" lon="2.47012">
        <ele>433.6</ele>
        <time>2020-03-27T09:36:28Z</time>
      </trkpt>
      <trkpt lat="43.72886" lon="2.46994">
        <ele>434.3</ele>
        <time>2020-03-27T09:36:30Z</time>
      </trkpt>
      <trkpt lat="43.7288" lon="2.46976">
        <ele>434.6</ele>
        <time>2020-03-27T09:36:32Z</time>
      </trkpt>
      <trkpt lat="43.72875" lon="2.46956">
        <ele>434.7</ele>
        <time>2020-03-27T09:36:34Z</time>
      </trkpt>
      <trkpt lat="43.72871" lon="2.46935">
        <ele>434.8</ele>
        <time>2020-03-27T09:36:36Z</time>
      </trkpt>
      <trkpt lat="43.72867" lon="2.46916">
        <ele>434.8</ele>
        <time>2020-03-27T09:36:38Z</time>
      </trkpt>
      <trkpt lat="43.72863" lon="2.46897">
        <ele>434.7</ele>
        <time>2020-03-27T09:36:40Z</time>
      </trkpt>
      <trkpt lat="43.7286" lon="2.46879">
        <ele>434.9</ele>
        <time>2020-03-27T09:36:42Z</time>
      </trkpt>
      <trkpt lat="43.72859" lon="2.46861">
        <ele>435.3</ele>
        <time>2020-03-27T09:36:44Z</time>
      </trkpt>
      <trkpt lat="43.72857" lon="2.46844">
        <ele>435.8</ele>
        <time>2020-03-27T09:36:46Z</time>
      </trkpt>
      <trkpt lat="43.72856" lon="2.46828">
        <ele>436.3</ele>
        <time>2020-03-27T09:36:48Z</time>
      </trkpt>
      <trkpt lat="43.72855" lon="2.46815">
        <ele>436.7</ele>
        <time>2020-03-27T09:36:50Z</time>
      </trkpt>
      <trkpt lat="43.72854" lon="2.468">
        <ele>437.1</ele>
        <time>2020-03-27T09:36:52Z</time>
      </trkpt>
      <trkpt lat="43.72852" lon="2.46782">
        <ele>437.6</ele>
        <time>2020-03-27T09:36:54Z</time>
      </trkpt>
      <trkpt lat="43.7285" lon="2.46766">
        <ele>438</ele>
        <time>2020-03-27T09:36:56Z</time>
      </trkpt>
      <trkpt lat="43.72849" lon="2.46752">
        <ele>438.4</ele>
        <time>2020-03-27T09:36:58Z</time>
      </trkpt>
      <trkpt lat="43.72847" lon="2.46737">
        <ele>439.1</ele>
        <time>2020-03-27T09:37:00Z</time>
      </trkpt>
      <trkpt lat="43.72845" lon="2.46724">
        <ele>439.4</ele>
        <time>2020-03-27T09:37:02Z</time>
      </trkpt>
      <trkpt lat="43.72844" lon="2.46712">
        <ele>439.5</ele>
        <time>2020-03-27T09:37:04Z</time>
      </trkpt>
      <trkpt lat="43.72843" lon="2.46695">
        <ele>439.6</ele>
        <time>2020-03-27T09:37:07Z</time>
      </trkpt>
      <trkpt lat="43.7284" lon="2.46678">
        <ele>439.8</ele>
        <time>2020-03-27T09:37:10Z</time>
      </trkpt>
      <trkpt lat="43.72838" lon="2.46662">
        <ele>440</ele>
        <time>2020-03-27T09:37:13Z</time>
      </trkpt>
      <trkpt lat="43.72835" lon="2.46649">
        <ele>440.2</ele>
        <time>2020-03-27T09:37:16Z</time>
      </trkpt>
      <trkpt lat="43.72834" lon="2.46634">
        <ele>440.3</ele>
        <time>2020-03-27T09:37:20Z</time>
      </trkpt>
      <trkpt lat="43.72832" lon="2.46619">
        <ele>440.4</ele>
        <time>2020-03-27T09:37:23Z</time>
      </trkpt>
      <trkpt lat="43.7283" lon="2.46606">
        <ele>440.4</ele>
        <time>2020-03-27T09:37:26Z</time>
      </trkpt>
      <trkpt lat="43.72827" lon="2.4659">
        <ele>440.5</ele>
        <time>2020-03-27T09:37:30Z</time>
      </trkpt>
      <trkpt lat="43.72826" lon="2.46577">
        <ele>440.7</ele>
        <time>2020-03-27T09:37:34Z</time>
      </trkpt>
      <trkpt lat="43.72823" lon="2.46565">
        <ele>441</ele>
        <time>2020-03-27T09:37:38Z</time>
      </trkpt>
      <trkpt lat="43.72822" lon="2.46552">
        <ele>441.5</ele>
        <time>2020-03-27T09:37:44Z</time>
      </trkpt>
      <trkpt lat="43.72819" lon="2.46539">
        <ele>442</ele>
        <time>2020-03-27T09:37:48Z</time>
      </trkpt>
      <trkpt lat="43.72819" lon="2.46524">
        <ele>442.5</ele>
        <time>2020-03-27T09:37:53Z</time>
      </trkpt>
      <trkpt lat="43.7282" lon="2.4651">
        <ele>442.8</ele>
        <time>2020-03-27T09:37:57Z</time>
      </trkpt>
      <trkpt lat="43.72825" lon="2.46499">
        <ele>443.3</ele>
        <time>2020-03-27T09:38:02Z</time>
      </trkpt>
      <trkpt lat="43.72831" lon="2.46488">
        <ele>443.8</ele>
        <time>2020-03-27T09:38:07Z</time>
      </trkpt>
      <trkpt lat="43.72838" lon="2.4648">
        <ele>444.5</ele>
        <time>2020-03-27T09:38:11Z</time>
      </trkpt>
      <trkpt lat="43.72843" lon="2.46466">
        <ele>445.2</ele>
        <time>2020-03-27T09:38:14Z</time>
      </trkpt>
      <trkpt lat="43.72845" lon="2.46452">
        <ele>445.8</ele>
        <time>2020-03-27T09:38:16Z</time>
      </trkpt>
      <trkpt lat="43.72847" lon="2.46438">
        <ele>446.9</ele>
        <time>2020-03-27T09:38:19Z</time>
      </trkpt>
      <trkpt lat="43.72842" lon="2.46421">
        <ele>447.7</ele>
        <time>2020-03-27T09:38:21Z</time>
      </trkpt>
      <trkpt lat="43.72846" lon="2.46405">
        <ele>449.5</ele>
        <time>2020-03-27T09:38:25Z</time>
      </trkpt>
      <trkpt lat="43.72852" lon="2.46393">
        <ele>451.1</ele>
        <time>2020-03-27T09:38:29Z</time>
      </trkpt>
      <trkpt lat="43.72858" lon="2.46379">
        <ele>452.3</ele>
        <time>2020-03-27T09:38:33Z</time>
      </trkpt>
      <trkpt lat="43.7286" lon="2.46366">
        <ele>452.8</ele>
        <time>2020-03-27T09:38:36Z</time>
      </trkpt>
      <trkpt lat="43.72865" lon="2.46356">
        <ele>453</ele>
        <time>2020-03-27T09:38:40Z</time>
      </trkpt>
      <trkpt lat="43.7287" lon="2.4634">
        <ele>452.9</ele>
        <time>2020-03-27T09:38:43Z</time>
      </trkpt>
      <trkpt lat="43.72874" lon="2.46327">
        <ele>452.7</ele>
        <time>2020-03-27T09:38:46Z</time>
      </trkpt>
      <trkpt lat="43.72879" lon="2.46317">
        <ele>452.5</ele>
        <time>2020-03-27T09:38:49Z</time>
      </trkpt>
      <trkpt lat="43.72885" lon="2.46305">
        <ele>452.2</ele>
        <time>2020-03-27T09:38:53Z</time>
      </trkpt>
      <trkpt lat="43.72893" lon="2.46296">
        <ele>452.1</ele>
        <time>2020-03-27T09:38:57Z</time>
      </trkpt>
      <trkpt lat="43.72904" lon="2.46288">
        <ele>452.1</ele>
        <time>2020-03-27T09:39:00Z</time>
      </trkpt>
      <trkpt lat="43.72915" lon="2.46283">
        <ele>452.4</ele>
        <time>2020-03-27T09:39:03Z</time>
      </trkpt>
      <trkpt lat="43.72926" lon="2.46277">
        <ele>452.9</ele>
        <time>2020-03-27T09:39:07Z</time>
      </trkpt>
      <trkpt lat="43.72937" lon="2.46271">
        <ele>453.4</ele>
        <time>2020-03-27T09:39:10Z</time>
      </trkpt>
      <trkpt lat="43.72948" lon="2.46264">
        <ele>453.9</ele>
        <time>2020-03-27T09:39:13Z</time>
      </trkpt>
      <trkpt lat="43.72958" lon="2.46255">
        <ele>455</ele>
        <time>2020-03-27T09:39:16Z</time>
      </trkpt>
      <trkpt lat="43.72964" lon="2.46245">
        <ele>456.4</ele>
        <time>2020-03-27T09:39:18Z</time>
      </trkpt>
      <trkpt lat="43.72969" lon="2.46228">
        <ele>457.2</ele>
        <time>2020-03-27T09:39:21Z</time>
      </trkpt>
      <trkpt lat="43.72971" lon="2.46213">
        <ele>457.6</ele>
        <time>2020-03-27T09:39:23Z</time>
      </trkpt>
      <trkpt lat="43.72973" lon="2.46198">
        <ele>457.4</ele>
        <time>2020-03-27T09:39:25Z</time>
      </trkpt>
      <trkpt lat="43.72975" lon="2.46181">
        <ele>456.9</ele>
        <time>2020-03-27T09:39:27Z</time>
      </trkpt>
      <trkpt lat="43.72977" lon="2.46162">
        <ele>456.2</ele>
        <time>2020-03-27T09:39:29Z</time>
      </trkpt>
      <trkpt lat="43.72979" lon="2.4614">
        <ele>455.6</ele>
        <time>2020-03-27T09:39:31Z</time>
      </trkpt>
      <trkpt lat="43.7298" lon="2.46119">
        <ele>455.2</ele>
        <time>2020-03-27T09:39:33Z</time>
      </trkpt>
      <trkpt lat="43.72982" lon="2.46098">
        <ele>454.6</ele>
        <time>2020-03-27T09:39:35Z</time>
      </trkpt>
      <trkpt lat="43.72975" lon="2.4608">
        <ele>454</ele>
        <time>2020-03-27T09:39:37Z</time>
      </trkpt>
      <trkpt lat="43.72973" lon="2.46063">
        <ele>453.3</ele>
        <time>2020-03-27T09:39:39Z</time>
      </trkpt>
      <trkpt lat="43.72975" lon="2.46051">
        <ele>452.9</ele>
        <time>2020-03-27T09:39:41Z</time>
      </trkpt>
      <trkpt lat="43.72975" lon="2.46036">
        <ele>452.7</ele>
        <time>2020-03-27T09:39:44Z</time>
      </trkpt>
      <trkpt lat="43.72976" lon="2.46019">
        <ele>452.5</ele>
        <time>2020-03-27T09:39:47Z</time>
      </trkpt>
      <trkpt lat="43.72975" lon="2.46005">
        <ele>452.5</ele>
        <time>2020-03-27T09:39:50Z</time>
      </trkpt>
      <trkpt lat="43.72974" lon="2.45991">
        <ele>452.5</ele>
        <time>2020-03-27T09:39:53Z</time>
      </trkpt>
      <trkpt lat="43.72974" lon="2.45979">
        <ele>452.6</ele>
        <time>2020-03-27T09:39:56Z</time>
      </trkpt>
      <trkpt lat="43.7297" lon="2.45966">
        <ele>452.6</ele>
        <time>2020-03-27T09:39:59Z</time>
      </trkpt>
      <trkpt lat="43.72964" lon="2.45956">
        <ele>452.6</ele>
        <time>2020-03-27T09:40:03Z</time>
      </trkpt>
      <trkpt lat="43.72955" lon="2.45951">
        <ele>452.5</ele>
        <time>2020-03-27T09:41:41Z</time>
      </trkpt>
      <trkpt lat="43.72947" lon="2.45959">
        <ele>452.4</ele>
        <time>2020-03-27T09:41:44Z</time>
      </trkpt>
      <trkpt lat="43.72936" lon="2.45968">
        <ele>451.4</ele>
        <time>2020-03-27T09:41:47Z</time>
      </trkpt>
      <trkpt lat="43.72926" lon="2.45979">
        <ele>450.3</ele>
        <time>2020-03-27T09:41:50Z</time>
      </trkpt>
      <trkpt lat="43.72915" lon="2.45988">
        <ele>449.3</ele>
        <time>2020-03-27T09:41:53Z</time>
      </trkpt>
      <trkpt lat="43.72906" lon="2.45996">
        <ele>448.8</ele>
        <time>2020-03-27T09:41:55Z</time>
      </trkpt>
      <trkpt lat="43.72899" lon="2.46004">
        <ele>448.5</ele>
        <time>2020-03-27T09:41:57Z</time>
      </trkpt>
      <trkpt lat="43.7289" lon="2.4601">
        <ele>448.1</ele>
        <time>2020-03-27T09:41:59Z</time>
      </trkpt>
      <trkpt lat="43.7288" lon="2.4602">
        <ele>447.8</ele>
        <time>2020-03-27T09:42:02Z</time>
      </trkpt>
      <trkpt lat="43.72872" lon="2.46027">
        <ele>447.8</ele>
        <time>2020-03-27T09:42:04Z</time>
      </trkpt>
      <trkpt lat="43.72862" lon="2.46035">
        <ele>447.9</ele>
        <time>2020-03-27T09:42:07Z</time>
      </trkpt>
      <trkpt lat="43.72851" lon="2.46042">
        <ele>448.1</ele>
        <time>2020-03-27T09:42:11Z</time>
      </trkpt>
      <trkpt lat="43.72843" lon="2.46049">
        <ele>448.2</ele>
        <time>2020-03-27T09:42:14Z</time>
      </trkpt>
      <trkpt lat="43.72833" lon="2.46055">
        <ele>448.4</ele>
        <time>2020-03-27T09:42:17Z</time>
      </trkpt>
      <trkpt lat="43.72824" lon="2.4606">
        <ele>448.6</ele>
        <time>2020-03-27T09:42:20Z</time>
      </trkpt>
      <trkpt lat="43.72816" lon="2.46068">
        <ele>449</ele>
        <time>2020-03-27T09:42:23Z</time>
      </trkpt>
      <trkpt lat="43.72806" lon="2.46075">
        <ele>449.5</ele>
        <time>2020-03-27T09:42:27Z</time>
      </trkpt>
      <trkpt lat="43.72796" lon="2.4608">
        <ele>450.2</ele>
        <time>2020-03-27T09:42:31Z</time>
      </trkpt>
      <trkpt lat="43.72784" lon="2.46087">
        <ele>451.3</ele>
        <time>2020-03-27T09:42:37Z</time>
      </trkpt>
      <trkpt lat="43.72776" lon="2.46097">
        <ele>453.4</ele>
        <time>2020-03-27T09:42:50Z</time>
      </trkpt>
      <trkpt lat="43.72766" lon="2.46099">
        <ele>454.3</ele>
        <time>2020-03-27T09:42:53Z</time>
      </trkpt>
      <trkpt lat="43.72756" lon="2.46101">
        <ele>455.1</ele>
        <time>2020-03-27T09:42:56Z</time>
      </trkpt>
      <trkpt lat="43.72745" lon="2.46103">
        <ele>456</ele>
        <time>2020-03-27T09:42:59Z</time>
      </trkpt>
      <trkpt lat="43.72736" lon="2.46104">
        <ele>457.1</ele>
        <time>2020-03-27T09:43:03Z</time>
      </trkpt>
      <trkpt lat="43.72726" lon="2.4611">
        <ele>458.4</ele>
        <time>2020-03-27T09:43:08Z</time>
      </trkpt>
      <trkpt lat="43.72716" lon="2.46114">
        <ele>459.4</ele>
        <time>2020-03-27T09:43:12Z</time>
      </trkpt>
      <trkpt lat="43.72707" lon="2.46117">
        <ele>460.2</ele>
        <time>2020-03-27T09:43:15Z</time>
      </trkpt>
      <trkpt lat="43.72697" lon="2.46116">
        <ele>461</ele>
        <time>2020-03-27T09:43:18Z</time>
      </trkpt>
      <trkpt lat="43.72688" lon="2.46119">
        <ele>461.8</ele>
        <time>2020-03-27T09:43:21Z</time>
      </trkpt>
      <trkpt lat="43.72676" lon="2.46121">
        <ele>462.7</ele>
        <time>2020-03-27T09:43:25Z</time>
      </trkpt>
      <trkpt lat="43.72665" lon="2.46123">
        <ele>463.5</ele>
        <time>2020-03-27T09:43:29Z</time>
      </trkpt>
      <trkpt lat="43.72656" lon="2.46126">
        <ele>464</ele>
        <time>2020-03-27T09:43:32Z</time>
      </trkpt>
      <trkpt lat="43.72646" lon="2.46129">
        <ele>464.7</ele>
        <time>2020-03-27T09:43:36Z</time>
      </trkpt>
      <trkpt lat="43.72638" lon="2.46134">
        <ele>465.2</ele>
        <time>2020-03-27T09:43:39Z</time>
      </trkpt>
      <trkpt lat="43.72629" lon="2.46139">
        <ele>465.7</ele>
        <time>2020-03-27T09:43:42Z</time>
      </trkpt>
      <trkpt lat="43.72619" lon="2.46146">
        <ele>466.3</ele>
        <time>2020-03-27T09:43:46Z</time>
      </trkpt>
      <trkpt lat="43.72611" lon="2.46152">
        <ele>466.7</ele>
        <time>2020-03-27T09:43:49Z</time>
      </trkpt>
      <trkpt lat="43.72603" lon="2.46159">
        <ele>467.1</ele>
        <time>2020-03-27T09:43:52Z</time>
      </trkpt>
      <trkpt lat="43.72596" lon="2.46167">
        <ele>467.4</ele>
        <time>2020-03-27T09:43:55Z</time>
      </trkpt>
      <trkpt lat="43.72588" lon="2.46177">
        <ele>467.7</ele>
        <time>2020-03-27T09:43:59Z</time>
      </trkpt>
      <trkpt lat="43.7258" lon="2.46186">
        <ele>468</ele>
        <time>2020-03-27T09:44:03Z</time>
      </trkpt>
      <trkpt lat="43.72571" lon="2.46197">
        <ele>468.2</ele>
        <time>2020-03-27T09:44:07Z</time>
      </trkpt>
      <trkpt lat="43.72564" lon="2.46208">
        <ele>468.4</ele>
        <time>2020-03-27T09:44:11Z</time>
      </trkpt>
      <trkpt lat="43.72557" lon="2.46219">
        <ele>468.5</ele>
        <time>2020-03-27T09:44:15Z</time>
      </trkpt>
      <trkpt lat="43.7255" lon="2.4623">
        <ele>468.6</ele>
        <time>2020-03-27T09:44:19Z</time>
      </trkpt>
      <trkpt lat="43.72545" lon="2.46241">
        <ele>468.6</ele>
        <time>2020-03-27T09:44:23Z</time>
      </trkpt>
      <trkpt lat="43.72539" lon="2.46251">
        <ele>468.6</ele>
        <time>2020-03-27T09:44:27Z</time>
      </trkpt>
      <trkpt lat="43.72531" lon="2.46262">
        <ele>468.7</ele>
        <time>2020-03-27T09:44:31Z</time>
      </trkpt>
      <trkpt lat="43.72523" lon="2.46273">
        <ele>468.9</ele>
        <time>2020-03-27T09:44:35Z</time>
      </trkpt>
      <trkpt lat="43.72515" lon="2.46285">
        <ele>469.2</ele>
        <time>2020-03-27T09:44:39Z</time>
      </trkpt>
      <trkpt lat="43.72509" lon="2.46297">
        <ele>469.5</ele>
        <time>2020-03-27T09:44:43Z</time>
      </trkpt>
      <trkpt lat="43.72504" lon="2.46311">
        <ele>470.1</ele>
        <time>2020-03-27T09:44:47Z</time>
      </trkpt>
      <trkpt lat="43.72498" lon="2.46324">
        <ele>470.8</ele>
        <time>2020-03-27T09:44:51Z</time>
      </trkpt>
      <trkpt lat="43.72494" lon="2.46338">
        <ele>471.7</ele>
        <time>2020-03-27T09:44:55Z</time>
      </trkpt>
      <trkpt lat="43.72489" lon="2.46352">
        <ele>472.9</ele>
        <time>2020-03-27T09:44:59Z</time>
      </trkpt>
      <trkpt lat="43.72485" lon="2.46366">
        <ele>474</ele>
        <time>2020-03-27T09:45:03Z</time>
      </trkpt>
      <trkpt lat="43.72478" lon="2.46378">
        <ele>474.9</ele>
        <time>2020-03-27T09:45:07Z</time>
      </trkpt>
      <trkpt lat="43.72473" lon="2.4639">
        <ele>475.8</ele>
        <time>2020-03-27T09:45:11Z</time>
      </trkpt>
      <trkpt lat="43.72467" lon="2.46402">
        <ele>476.6</ele>
        <time>2020-03-27T09:45:15Z</time>
      </trkpt>
      <trkpt lat="43.7246" lon="2.46413">
        <ele>477.6</ele>
        <time>2020-03-27T09:45:19Z</time>
      </trkpt>
      <trkpt lat="43.72452" lon="2.46425">
        <ele>478.6</ele>
        <time>2020-03-27T09:45:23Z</time>
      </trkpt>
      <trkpt lat="43.72445" lon="2.46434">
        <ele>479.7</ele>
        <time>2020-03-27T09:45:27Z</time>
      </trkpt>
      <trkpt lat="43.7244" lon="2.46445">
        <ele>480.6</ele>
        <time>2020-03-27T09:45:31Z</time>
      </trkpt>
      <trkpt lat="43.72436" lon="2.46458">
        <ele>481.6</ele>
        <time>2020-03-27T09:45:35Z</time>
      </trkpt>
      <trkpt lat="43.7243" lon="2.46469">
        <ele>482.7</ele>
        <time>2020-03-27T09:45:39Z</time>
      </trkpt>
      <trkpt lat="43.72424" lon="2.46479">
        <ele>483.8</ele>
        <time>2020-03-27T09:45:43Z</time>
      </trkpt>
      <trkpt lat="43.72419" lon="2.46491">
        <ele>484.7</ele>
        <time>2020-03-27T09:45:47Z</time>
      </trkpt>
      <trkpt lat="43.72413" lon="2.46501">
        <ele>485.6</ele>
        <time>2020-03-27T09:45:51Z</time>
      </trkpt>
      <trkpt lat="43.72407" lon="2.46513">
        <ele>486.4</ele>
        <time>2020-03-27T09:45:55Z</time>
      </trkpt>
      <trkpt lat="43.724" lon="2.46523">
        <ele>487.2</ele>
        <time>2020-03-27T09:45:59Z</time>
      </trkpt>
      <trkpt lat="43.72392" lon="2.46531">
        <ele>488.1</ele>
        <time>2020-03-27T09:46:03Z</time>
      </trkpt>
      <trkpt lat="43.72385" lon="2.46542">
        <ele>489</ele>
        <time>2020-03-27T09:46:08Z</time>
      </trkpt>
      <trkpt lat="43.7238" lon="2.46553">
        <ele>489.3</ele>
        <time>2020-03-27T09:46:12Z</time>
      </trkpt>
      <trkpt lat="43.72372" lon="2.46561">
        <ele>489.5</ele>
        <time>2020-03-27T09:46:15Z</time>
      </trkpt>
      <trkpt lat="43.72365" lon="2.46569">
        <ele>489.7</ele>
        <time>2020-03-27T09:46:19Z</time>
      </trkpt>
      <trkpt lat="43.72359" lon="2.46578">
        <ele>489.8</ele>
        <time>2020-03-27T09:46:22Z</time>
      </trkpt>
      <trkpt lat="43.7235" lon="2.46586">
        <ele>490.2</ele>
        <time>2020-03-27T09:46:26Z</time>
      </trkpt>
      <trkpt lat="43.72342" lon="2.46594">
        <ele>490.6</ele>
        <time>2020-03-27T09:46:29Z</time>
      </trkpt>
      <trkpt lat="43.72334" lon="2.46603">
        <ele>491.1</ele>
        <time>2020-03-27T09:46:33Z</time>
      </trkpt>
      <trkpt lat="43.72325" lon="2.46612">
        <ele>491.6</ele>
        <time>2020-03-27T09:46:37Z</time>
      </trkpt>
      <trkpt lat="43.72318" lon="2.46623">
        <ele>491.9</ele>
        <time>2020-03-27T09:46:41Z</time>
      </trkpt>
      <trkpt lat="43.72312" lon="2.46633">
        <ele>492.1</ele>
        <time>2020-03-27T09:46:45Z</time>
      </trkpt>
      <trkpt lat="43.72304" lon="2.46644">
        <ele>492.3</ele>
        <time>2020-03-27T09:46:49Z</time>
      </trkpt>
      <trkpt lat="43.72296" lon="2.46654">
        <ele>492.4</ele>
        <time>2020-03-27T09:46:53Z</time>
      </trkpt>
      <trkpt lat="43.72289" lon="2.46665">
        <ele>492.5</ele>
        <time>2020-03-27T09:46:57Z</time>
      </trkpt>
      <trkpt lat="43.72282" lon="2.46676">
        <ele>492.6</ele>
        <time>2020-03-27T09:47:02Z</time>
      </trkpt>
      <trkpt lat="43.72277" lon="2.46689">
        <ele>492.7</ele>
        <time>2020-03-27T09:47:06Z</time>
      </trkpt>
      <trkpt lat="43.72273" lon="2.46703">
        <ele>493</ele>
        <time>2020-03-27T09:47:11Z</time>
      </trkpt>
      <trkpt lat="43.72271" lon="2.46716">
        <ele>493.3</ele>
        <time>2020-03-27T09:47:15Z</time>
      </trkpt>
      <trkpt lat="43.72271" lon="2.46731">
        <ele>493.7</ele>
        <time>2020-03-27T09:47:20Z</time>
      </trkpt>
      <trkpt lat="43.72272" lon="2.46745">
        <ele>494.2</ele>
        <time>2020-03-27T09:47:24Z</time>
      </trkpt>
      <trkpt lat="43.72271" lon="2.46758">
        <ele>495</ele>
        <time>2020-03-27T09:47:29Z</time>
      </trkpt>
      <trkpt lat="43.7227" lon="2.46772">
        <ele>495.7</ele>
        <time>2020-03-27T09:47:34Z</time>
      </trkpt>
      <trkpt lat="43.72271" lon="2.46786">
        <ele>496.6</ele>
        <time>2020-03-27T09:47:39Z</time>
      </trkpt>
      <trkpt lat="43.72273" lon="2.468">
        <ele>497.8</ele>
        <time>2020-03-27T09:47:44Z</time>
      </trkpt>
      <trkpt lat="43.72275" lon="2.46813">
        <ele>498.9</ele>
        <time>2020-03-27T09:47:49Z</time>
      </trkpt>
      <trkpt lat="43.72278" lon="2.46827">
        <ele>500.1</ele>
        <time>2020-03-27T09:47:55Z</time>
      </trkpt>
      <trkpt lat="43.72282" lon="2.46842">
        <ele>501.1</ele>
        <time>2020-03-27T09:48:00Z</time>
      </trkpt>
      <trkpt lat="43.72285" lon="2.46855">
        <ele>502.2</ele>
        <time>2020-03-27T09:48:05Z</time>
      </trkpt>
      <trkpt lat="43.72287" lon="2.46867">
        <ele>502.9</ele>
        <time>2020-03-27T09:48:08Z</time>
      </trkpt>
      <trkpt lat="43.7229" lon="2.46879">
        <ele>503.9</ele>
        <time>2020-03-27T09:48:11Z</time>
      </trkpt>
      <trkpt lat="43.72292" lon="2.46892">
        <ele>505.5</ele>
        <time>2020-03-27T09:48:15Z</time>
      </trkpt>
      <trkpt lat="43.72293" lon="2.46904">
        <ele>508.3</ele>
        <time>2020-03-27T09:48:22Z</time>
      </trkpt>
      <trkpt lat="43.72293" lon="2.46919">
        <ele>510.2</ele>
        <time>2020-03-27T09:48:29Z</time>
      </trkpt>
      <trkpt lat="43.72291" lon="2.46933">
        <ele>511.4</ele>
        <time>2020-03-27T09:48:34Z</time>
      </trkpt>
      <trkpt lat="43.72291" lon="2.46947">
        <ele>512.2</ele>
        <time>2020-03-27T09:48:39Z</time>
      </trkpt>
      <trkpt lat="43.72292" lon="2.4696">
        <ele>512.4</ele>
        <time>2020-03-27T09:48:42Z</time>
      </trkpt>
      <trkpt lat="43.72294" lon="2.46975">
        <ele>513</ele>
        <time>2020-03-27T09:48:45Z</time>
      </trkpt>
      <trkpt lat="43.72294" lon="2.46991">
        <ele>514.7</ele>
        <time>2020-03-27T09:48:50Z</time>
      </trkpt>
      <trkpt lat="43.72295" lon="2.47003">
        <ele>516.3</ele>
        <time>2020-03-27T09:48:55Z</time>
      </trkpt>
      <trkpt lat="43.72292" lon="2.47016">
        <ele>517.4</ele>
        <time>2020-03-27T09:48:59Z</time>
      </trkpt>
      <trkpt lat="43.7229" lon="2.47028">
        <ele>518.4</ele>
        <time>2020-03-27T09:49:03Z</time>
      </trkpt>
      <trkpt lat="43.72286" lon="2.4704">
        <ele>519.4</ele>
        <time>2020-03-27T09:49:08Z</time>
      </trkpt>
      <trkpt lat="43.72286" lon="2.47055">
        <ele>520.1</ele>
        <time>2020-03-27T09:49:14Z</time>
      </trkpt>
      <trkpt lat="43.72288" lon="2.47068">
        <ele>520.2</ele>
        <time>2020-03-27T09:49:19Z</time>
      </trkpt>
      <trkpt lat="43.72288" lon="2.47082">
        <ele>520.1</ele>
        <time>2020-03-27T09:49:23Z</time>
      </trkpt>
      <trkpt lat="43.72289" lon="2.47096">
        <ele>520</ele>
        <time>2020-03-27T09:49:28Z</time>
      </trkpt>
      <trkpt lat="43.7229" lon="2.4711">
        <ele>520.1</ele>
        <time>2020-03-27T09:49:32Z</time>
      </trkpt>
      <trkpt lat="43.72289" lon="2.47125">
        <ele>520.3</ele>
        <time>2020-03-27T09:49:37Z</time>
      </trkpt>
      <trkpt lat="43.72288" lon="2.47138">
        <ele>520.7</ele>
        <time>2020-03-27T09:49:43Z</time>
      </trkpt>
      <trkpt lat="43.72291" lon="2.47152">
        <ele>521.1</ele>
        <time>2020-03-27T09:49:47Z</time>
      </trkpt>
      <trkpt lat="43.72291" lon="2.47167">
        <ele>522.2</ele>
        <time>2020-03-27T09:49:52Z</time>
      </trkpt>
      <trkpt lat="43.72293" lon="2.47179">
        <ele>523.1</ele>
        <time>2020-03-27T09:49:56Z</time>
      </trkpt>
      <trkpt lat="43.72295" lon="2.47194">
        <ele>524.3</ele>
        <time>2020-03-27T09:50:01Z</time>
      </trkpt>
      <trkpt lat="43.72299" lon="2.47208">
        <ele>525.9</ele>
        <time>2020-03-27T09:50:07Z</time>
      </trkpt>
      <trkpt lat="43.72299" lon="2.47224">
        <ele>527.7</ele>
        <time>2020-03-27T09:50:13Z</time>
      </trkpt>
      <trkpt lat="43.723" lon="2.47236">
        <ele>529.2</ele>
        <time>2020-03-27T09:50:17Z</time>
      </trkpt>
      <trkpt lat="43.723" lon="2.47252">
        <ele>531.1</ele>
        <time>2020-03-27T09:50:22Z</time>
      </trkpt>
      <trkpt lat="43.72297" lon="2.47264">
        <ele>532.7</ele>
        <time>2020-03-27T09:50:27Z</time>
      </trkpt>
      <trkpt lat="43.72295" lon="2.47279">
        <ele>534.3</ele>
        <time>2020-03-27T09:50:33Z</time>
      </trkpt>
      <trkpt lat="43.72292" lon="2.47292">
        <ele>535.4</ele>
        <time>2020-03-27T09:50:39Z</time>
      </trkpt>
      <trkpt lat="43.7229" lon="2.47305">
        <ele>536</ele>
        <time>2020-03-27T09:50:44Z</time>
      </trkpt>
      <trkpt lat="43.72288" lon="2.4732">
        <ele>536.9</ele>
        <time>2020-03-27T09:50:49Z</time>
      </trkpt>
      <trkpt lat="43.72286" lon="2.47333">
        <ele>537.9</ele>
        <time>2020-03-27T09:50:53Z</time>
      </trkpt>
      <trkpt lat="43.72284" lon="2.47345">
        <ele>539</ele>
        <time>2020-03-27T09:50:57Z</time>
      </trkpt>
      <trkpt lat="43.72278" lon="2.47357">
        <ele>540.4</ele>
        <time>2020-03-27T09:51:02Z</time>
      </trkpt>
      <trkpt lat="43.72275" lon="2.47369">
        <ele>541.2</ele>
        <time>2020-03-27T09:51:06Z</time>
      </trkpt>
      <trkpt lat="43.72274" lon="2.47383">
        <ele>541.9</ele>
        <time>2020-03-27T09:51:10Z</time>
      </trkpt>
      <trkpt lat="43.72273" lon="2.47397">
        <ele>542.7</ele>
        <time>2020-03-27T09:51:15Z</time>
      </trkpt>
      <trkpt lat="43.72272" lon="2.47412">
        <ele>543.2</ele>
        <time>2020-03-27T09:51:20Z</time>
      </trkpt>
      <trkpt lat="43.72274" lon="2.47424">
        <ele>543.7</ele>
        <time>2020-03-27T09:51:25Z</time>
      </trkpt>
      <trkpt lat="43.72276" lon="2.47437">
        <ele>543.9</ele>
        <time>2020-03-27T09:51:30Z</time>
      </trkpt>
      <trkpt lat="43.72281" lon="2.47448">
        <ele>543.8</ele>
        <time>2020-03-27T09:51:35Z</time>
      </trkpt>
      <trkpt lat="43.72289" lon="2.47456">
        <ele>543.8</ele>
        <time>2020-03-27T09:51:40Z</time>
      </trkpt>
      <trkpt lat="43.72296" lon="2.47465">
        <ele>544.1</ele>
        <time>2020-03-27T09:51:45Z</time>
      </trkpt>
      <trkpt lat="43.72304" lon="2.47472">
        <ele>544.6</ele>
        <time>2020-03-27T09:51:50Z</time>
      </trkpt>
      <trkpt lat="43.72312" lon="2.47478">
        <ele>545.1</ele>
        <time>2020-03-27T09:51:55Z</time>
      </trkpt>
      <trkpt lat="43.7232" lon="2.47486">
        <ele>545.2</ele>
        <time>2020-03-27T09:52:00Z</time>
      </trkpt>
      <trkpt lat="43.72328" lon="2.475">
        <ele>545.5</ele>
        <time>2020-03-27T09:52:04Z</time>
      </trkpt>
      <trkpt lat="43.72334" lon="2.47512">
        <ele>546.5</ele>
        <time>2020-03-27T09:52:08Z</time>
      </trkpt>
      <trkpt lat="43.72339" lon="2.47523">
        <ele>547.8</ele>
        <time>2020-03-27T09:52:11Z</time>
      </trkpt>
      <trkpt lat="43.72346" lon="2.47535">
        <ele>550.2</ele>
        <time>2020-03-27T09:52:15Z</time>
      </trkpt>
      <trkpt lat="43.72351" lon="2.47547">
        <ele>552.9</ele>
        <time>2020-03-27T09:52:19Z</time>
      </trkpt>
      <trkpt lat="43.72359" lon="2.47556">
        <ele>554.7</ele>
        <time>2020-03-27T09:52:22Z</time>
      </trkpt>
      <trkpt lat="43.72368" lon="2.47565">
        <ele>556</ele>
        <time>2020-03-27T09:52:25Z</time>
      </trkpt>
      <trkpt lat="43.72374" lon="2.47575">
        <ele>556.6</ele>
        <time>2020-03-27T09:52:28Z</time>
      </trkpt>
      <trkpt lat="43.7238" lon="2.47588">
        <ele>557</ele>
        <time>2020-03-27T09:52:32Z</time>
      </trkpt>
      <trkpt lat="43.72385" lon="2.476">
        <ele>557.2</ele>
        <time>2020-03-27T09:52:35Z</time>
      </trkpt>
      <trkpt lat="43.72389" lon="2.47611">
        <ele>557.5</ele>
        <time>2020-03-27T09:52:39Z</time>
      </trkpt>
      <trkpt lat="43.72391" lon="2.47625">
        <ele>557.8</ele>
        <time>2020-03-27T09:52:45Z</time>
      </trkpt>
      <trkpt lat="43.72388" lon="2.4764">
        <ele>558.6</ele>
        <time>2020-03-27T09:52:50Z</time>
      </trkpt>
      <trkpt lat="43.72382" lon="2.47652">
        <ele>559.4</ele>
        <time>2020-03-27T09:52:54Z</time>
      </trkpt>
      <trkpt lat="43.72375" lon="2.47662">
        <ele>560.1</ele>
        <time>2020-03-27T09:52:58Z</time>
      </trkpt>
      <trkpt lat="43.72368" lon="2.4767">
        <ele>560.8</ele>
        <time>2020-03-27T09:53:02Z</time>
      </trkpt>
      <trkpt lat="43.7236" lon="2.47677">
        <ele>561.4</ele>
        <time>2020-03-27T09:53:06Z</time>
      </trkpt>
      <trkpt lat="43.72351" lon="2.47684">
        <ele>562</ele>
        <time>2020-03-27T09:53:11Z</time>
      </trkpt>
      <trkpt lat="43.72343" lon="2.47688">
        <ele>562.3</ele>
        <time>2020-03-27T09:53:15Z</time>
      </trkpt>
      <trkpt lat="43.72334" lon="2.47694">
        <ele>562.5</ele>
        <time>2020-03-27T09:53:19Z</time>
      </trkpt>
      <trkpt lat="43.72324" lon="2.47701">
        <ele>562.6</ele>
        <time>2020-03-27T09:53:23Z</time>
      </trkpt>
      <trkpt lat="43.72316" lon="2.47707">
        <ele>562.6</ele>
        <time>2020-03-27T09:53:27Z</time>
      </trkpt>
      <trkpt lat="43.72308" lon="2.47715">
        <ele>562.5</ele>
        <time>2020-03-27T09:53:31Z</time>
      </trkpt>
      <trkpt lat="43.72298" lon="2.47722">
        <ele>562.2</ele>
        <time>2020-03-27T09:53:35Z</time>
      </trkpt>
      <trkpt lat="43.7229" lon="2.47731">
        <ele>561.8</ele>
        <time>2020-03-27T09:53:39Z</time>
      </trkpt>
      <trkpt lat="43.72282" lon="2.47741">
        <ele>561.3</ele>
        <time>2020-03-27T09:53:43Z</time>
      </trkpt>
      <trkpt lat="43.72274" lon="2.4775">
        <ele>560.9</ele>
        <time>2020-03-27T09:53:47Z</time>
      </trkpt>
      <trkpt lat="43.72267" lon="2.47761">
        <ele>560.4</ele>
        <time>2020-03-27T09:53:51Z</time>
      </trkpt>
      <trkpt lat="43.7226" lon="2.47771">
        <ele>560.1</ele>
        <time>2020-03-27T09:53:55Z</time>
      </trkpt>
      <trkpt lat="43.72253" lon="2.47782">
        <ele>559.7</ele>
        <time>2020-03-27T09:53:59Z</time>
      </trkpt>
      <trkpt lat="43.72247" lon="2.47793">
        <ele>559.4</ele>
        <time>2020-03-27T09:54:03Z</time>
      </trkpt>
      <trkpt lat="43.72242" lon="2.47805">
        <ele>559.2</ele>
        <time>2020-03-27T09:54:07Z</time>
      </trkpt>
      <trkpt lat="43.72236" lon="2.47817">
        <ele>559.1</ele>
        <time>2020-03-27T09:54:11Z</time>
      </trkpt>
      <trkpt lat="43.72232" lon="2.47828">
        <ele>558.9</ele>
        <time>2020-03-27T09:54:15Z</time>
      </trkpt>
      <trkpt lat="43.72226" lon="2.47841">
        <ele>558.7</ele>
        <time>2020-03-27T09:54:20Z</time>
      </trkpt>
      <trkpt lat="43.72221" lon="2.47852">
        <ele>558.5</ele>
        <time>2020-03-27T09:54:24Z</time>
      </trkpt>
      <trkpt lat="43.72223" lon="2.47865">
        <ele>558.2</ele>
        <time>2020-03-27T09:54:29Z</time>
      </trkpt>
      <trkpt lat="43.72231" lon="2.47856">
        <ele>558.7</ele>
        <time>2020-03-27T09:56:23Z</time>
      </trkpt>
      <trkpt lat="43.72234" lon="2.47842">
        <ele>559.2</ele>
        <time>2020-03-27T09:56:35Z</time>
      </trkpt>
      <trkpt lat="43.7224" lon="2.47828">
        <ele>559.3</ele>
        <time>2020-03-27T09:56:39Z</time>
      </trkpt>
      <trkpt lat="43.72247" lon="2.4782">
        <ele>559.5</ele>
        <time>2020-03-27T09:56:43Z</time>
      </trkpt>
      <trkpt lat="43.72256" lon="2.47812">
        <ele>559.6</ele>
        <time>2020-03-27T09:56:48Z</time>
      </trkpt>
      <trkpt lat="43.72266" lon="2.47804">
        <ele>559.8</ele>
        <time>2020-03-27T09:56:53Z</time>
      </trkpt>
      <trkpt lat="43.72274" lon="2.47797">
        <ele>560</ele>
        <time>2020-03-27T09:56:57Z</time>
      </trkpt>
      <trkpt lat="43.72282" lon="2.4779">
        <ele>560.4</ele>
        <time>2020-03-27T09:57:01Z</time>
      </trkpt>
      <trkpt lat="43.72292" lon="2.47782">
        <ele>561</ele>
        <time>2020-03-27T09:57:06Z</time>
      </trkpt>
      <trkpt lat="43.72301" lon="2.47775">
        <ele>561.5</ele>
        <time>2020-03-27T09:57:11Z</time>
      </trkpt>
      <trkpt lat="43.72311" lon="2.47768">
        <ele>561.8</ele>
        <time>2020-03-27T09:57:16Z</time>
      </trkpt>
      <trkpt lat="43.72319" lon="2.47762">
        <ele>562.1</ele>
        <time>2020-03-27T09:57:20Z</time>
      </trkpt>
      <trkpt lat="43.72329" lon="2.47756">
        <ele>562.6</ele>
        <time>2020-03-27T09:57:25Z</time>
      </trkpt>
      <trkpt lat="43.72337" lon="2.4775">
        <ele>563</ele>
        <time>2020-03-27T09:57:29Z</time>
      </trkpt>
      <trkpt lat="43.72347" lon="2.47743">
        <ele>563.7</ele>
        <time>2020-03-27T09:57:34Z</time>
      </trkpt>
      <trkpt lat="43.72357" lon="2.47737">
        <ele>564.5</ele>
        <time>2020-03-27T09:57:39Z</time>
      </trkpt>
      <trkpt lat="43.72366" lon="2.47733">
        <ele>565.4</ele>
        <time>2020-03-27T09:57:44Z</time>
      </trkpt>
      <trkpt lat="43.72374" lon="2.47728">
        <ele>566.5</ele>
        <time>2020-03-27T09:57:49Z</time>
      </trkpt>
      <trkpt lat="43.72384" lon="2.47728">
        <ele>568.7</ele>
        <time>2020-03-27T09:57:56Z</time>
      </trkpt>
      <trkpt lat="43.72393" lon="2.47731">
        <ele>571</ele>
        <time>2020-03-27T09:58:03Z</time>
      </trkpt>
      <trkpt lat="43.72404" lon="2.47734">
        <ele>573</ele>
        <time>2020-03-27T09:58:09Z</time>
      </trkpt>
      <trkpt lat="43.72414" lon="2.47733">
        <ele>574</ele>
        <time>2020-03-27T09:58:13Z</time>
      </trkpt>
      <trkpt lat="43.72423" lon="2.47729">
        <ele>574.9</ele>
        <time>2020-03-27T09:58:18Z</time>
      </trkpt>
      <trkpt lat="43.7243" lon="2.47718">
        <ele>575.4</ele>
        <time>2020-03-27T09:58:23Z</time>
      </trkpt>
      <trkpt lat="43.72434" lon="2.47707">
        <ele>576</ele>
        <time>2020-03-27T09:58:27Z</time>
      </trkpt>
      <trkpt lat="43.72441" lon="2.47696">
        <ele>576.6</ele>
        <time>2020-03-27T09:58:33Z</time>
      </trkpt>
      <trkpt lat="43.72445" lon="2.47683">
        <ele>577.2</ele>
        <time>2020-03-27T09:58:37Z</time>
      </trkpt>
      <trkpt lat="43.72448" lon="2.47669">
        <ele>578.6</ele>
        <time>2020-03-27T09:58:43Z</time>
      </trkpt>
      <trkpt lat="43.72451" lon="2.47657">
        <ele>580.1</ele>
        <time>2020-03-27T09:58:48Z</time>
      </trkpt>
      <trkpt lat="43.72453" lon="2.47644">
        <ele>581.7</ele>
        <time>2020-03-27T09:58:53Z</time>
      </trkpt>
      <trkpt lat="43.72454" lon="2.47631">
        <ele>582.9</ele>
        <time>2020-03-27T09:58:58Z</time>
      </trkpt>
      <trkpt lat="43.72451" lon="2.47619">
        <ele>584.3</ele>
        <time>2020-03-27T09:59:04Z</time>
      </trkpt>
      <trkpt lat="43.72449" lon="2.47604">
        <ele>585.9</ele>
        <time>2020-03-27T09:59:10Z</time>
      </trkpt>
      <trkpt lat="43.72446" lon="2.47591">
        <ele>587.6</ele>
        <time>2020-03-27T09:59:15Z</time>
      </trkpt>
      <trkpt lat="43.72445" lon="2.47578">
        <ele>589.3</ele>
        <time>2020-03-27T09:59:21Z</time>
      </trkpt>
      <trkpt lat="43.72446" lon="2.47566">
        <ele>590.5</ele>
        <time>2020-03-27T09:59:27Z</time>
      </trkpt>
      <trkpt lat="43.72442" lon="2.47553">
        <ele>591.1</ele>
        <time>2020-03-27T09:59:32Z</time>
      </trkpt>
      <trkpt lat="43.72441" lon="2.4754">
        <ele>592.2</ele>
        <time>2020-03-27T09:59:38Z</time>
      </trkpt>
      <trkpt lat="43.72436" lon="2.47525">
        <ele>592.5</ele>
        <time>2020-03-27T09:59:42Z</time>
      </trkpt>
      <trkpt lat="43.72431" lon="2.47511">
        <ele>592.6</ele>
        <time>2020-03-27T09:59:46Z</time>
      </trkpt>
      <trkpt lat="43.72425" lon="2.47498">
        <ele>592.5</ele>
        <time>2020-03-27T09:59:51Z</time>
      </trkpt>
      <trkpt lat="43.72418" lon="2.47488">
        <ele>592.4</ele>
        <time>2020-03-27T09:59:57Z</time>
      </trkpt>
      <trkpt lat="43.72415" lon="2.47472">
        <ele>592.3</ele>
        <time>2020-03-27T10:00:03Z</time>
      </trkpt>
      <trkpt lat="43.72411" lon="2.4746">
        <ele>592.2</ele>
        <time>2020-03-27T10:00:06Z</time>
      </trkpt>
      <trkpt lat="43.72413" lon="2.47445">
        <ele>592</ele>
        <time>2020-03-27T10:00:11Z</time>
      </trkpt>
      <trkpt lat="43.72414" lon="2.47432">
        <ele>591.8</ele>
        <time>2020-03-27T10:00:15Z</time>
      </trkpt>
      <trkpt lat="43.72419" lon="2.47419">
        <ele>591.6</ele>
        <time>2020-03-27T10:00:20Z</time>
      </trkpt>
      <trkpt lat="43.72422" lon="2.47403">
        <ele>591.3</ele>
        <time>2020-03-27T10:00:24Z</time>
      </trkpt>
      <trkpt lat="43.72421" lon="2.4739">
        <ele>590.9</ele>
        <time>2020-03-27T10:00:27Z</time>
      </trkpt>
      <trkpt lat="43.72424" lon="2.47375">
        <ele>590.6</ele>
        <time>2020-03-27T10:00:30Z</time>
      </trkpt>
      <trkpt lat="43.72426" lon="2.47359">
        <ele>590.4</ele>
        <time>2020-03-27T10:00:33Z</time>
      </trkpt>
      <trkpt lat="43.72426" lon="2.47347">
        <ele>590.4</ele>
        <time>2020-03-27T10:00:36Z</time>
      </trkpt>
      <trkpt lat="43.72428" lon="2.47332">
        <ele>590.7</ele>
        <time>2020-03-27T10:00:39Z</time>
      </trkpt>
      <trkpt lat="43.72428" lon="2.47317">
        <ele>591.1</ele>
        <time>2020-03-27T10:00:42Z</time>
      </trkpt>
      <trkpt lat="43.72434" lon="2.47305">
        <ele>591.7</ele>
        <time>2020-03-27T10:00:46Z</time>
      </trkpt>
      <trkpt lat="43.7244" lon="2.47293">
        <ele>592</ele>
        <time>2020-03-27T10:00:49Z</time>
      </trkpt>
      <trkpt lat="43.72442" lon="2.47278">
        <ele>592.2</ele>
        <time>2020-03-27T10:00:52Z</time>
      </trkpt>
      <trkpt lat="43.72446" lon="2.47265">
        <ele>592.6</ele>
        <time>2020-03-27T10:00:55Z</time>
      </trkpt>
      <trkpt lat="43.72452" lon="2.47254">
        <ele>593</ele>
        <time>2020-03-27T10:00:59Z</time>
      </trkpt>
      <trkpt lat="43.72457" lon="2.47244">
        <ele>593.2</ele>
        <time>2020-03-27T10:01:02Z</time>
      </trkpt>
      <trkpt lat="43.72462" lon="2.47232">
        <ele>593.3</ele>
        <time>2020-03-27T10:01:05Z</time>
      </trkpt>
      <trkpt lat="43.72466" lon="2.4722">
        <ele>593.4</ele>
        <time>2020-03-27T10:01:08Z</time>
      </trkpt>
      <trkpt lat="43.72474" lon="2.47211">
        <ele>593.5</ele>
        <time>2020-03-27T10:01:12Z</time>
      </trkpt>
      <trkpt lat="43.72481" lon="2.47222">
        <ele>594.2</ele>
        <time>2020-03-27T10:01:24Z</time>
      </trkpt>
      <trkpt lat="43.72481" lon="2.47237">
        <ele>594.2</ele>
        <time>2020-03-27T10:01:31Z</time>
      </trkpt>
      <trkpt lat="43.7248" lon="2.47251">
        <ele>594.4</ele>
        <time>2020-03-27T10:01:36Z</time>
      </trkpt>
      <trkpt lat="43.7248" lon="2.47264">
        <ele>595</ele>
        <time>2020-03-27T10:01:41Z</time>
      </trkpt>
      <trkpt lat="43.72482" lon="2.47278">
        <ele>595.9</ele>
        <time>2020-03-27T10:01:47Z</time>
      </trkpt>
      <trkpt lat="43.72481" lon="2.4729">
        <ele>596.8</ele>
        <time>2020-03-27T10:01:53Z</time>
      </trkpt>
      <trkpt lat="43.72478" lon="2.47303">
        <ele>597.8</ele>
        <time>2020-03-27T10:01:59Z</time>
      </trkpt>
      <trkpt lat="43.72478" lon="2.47318">
        <ele>598.9</ele>
        <time>2020-03-27T10:02:06Z</time>
      </trkpt>
      <trkpt lat="43.72479" lon="2.47332">
        <ele>599.9</ele>
        <time>2020-03-27T10:02:12Z</time>
      </trkpt>
      <trkpt lat="43.7248" lon="2.47346">
        <ele>600.7</ele>
        <time>2020-03-27T10:02:18Z</time>
      </trkpt>
      <trkpt lat="43.72481" lon="2.47359">
        <ele>601.7</ele>
        <time>2020-03-27T10:02:23Z</time>
      </trkpt>
      <trkpt lat="43.72483" lon="2.47374">
        <ele>603.1</ele>
        <time>2020-03-27T10:02:29Z</time>
      </trkpt>
      <trkpt lat="43.72484" lon="2.47387">
        <ele>604.5</ele>
        <time>2020-03-27T10:02:34Z</time>
      </trkpt>
      <trkpt lat="43.72481" lon="2.474">
        <ele>606.1</ele>
        <time>2020-03-27T10:02:40Z</time>
      </trkpt>
      <trkpt lat="43.72482" lon="2.47414">
        <ele>607.9</ele>
        <time>2020-03-27T10:02:46Z</time>
      </trkpt>
      <trkpt lat="43.72491" lon="2.47414">
        <ele>610.1</ele>
        <time>2020-03-27T10:02:53Z</time>
      </trkpt>
      <trkpt lat="43.72495" lon="2.47402">
        <ele>611.5</ele>
        <time>2020-03-27T10:02:58Z</time>
      </trkpt>
      <trkpt lat="43.72504" lon="2.47392">
        <ele>612.7</ele>
        <time>2020-03-27T10:03:04Z</time>
      </trkpt>
      <trkpt lat="43.72514" lon="2.4739">
        <ele>614.1</ele>
        <time>2020-03-27T10:03:10Z</time>
      </trkpt>
      <trkpt lat="43.72521" lon="2.474">
        <ele>615.6</ele>
        <time>2020-03-27T10:03:16Z</time>
      </trkpt>
      <trkpt lat="43.72528" lon="2.47409">
        <ele>616.4</ele>
        <time>2020-03-27T10:03:20Z</time>
      </trkpt>
      <trkpt lat="43.72531" lon="2.47423">
        <ele>617.3</ele>
        <time>2020-03-27T10:03:25Z</time>
      </trkpt>
      <trkpt lat="43.7253" lon="2.47437">
        <ele>618.7</ele>
        <time>2020-03-27T10:03:33Z</time>
      </trkpt>
      <trkpt lat="43.7253" lon="2.47449">
        <ele>620</ele>
        <time>2020-03-27T10:03:40Z</time>
      </trkpt>
      <trkpt lat="43.72534" lon="2.47461">
        <ele>620.7</ele>
        <time>2020-03-27T10:03:46Z</time>
      </trkpt>
      <trkpt lat="43.72538" lon="2.47473">
        <ele>621.4</ele>
        <time>2020-03-27T10:03:52Z</time>
      </trkpt>
      <trkpt lat="43.72541" lon="2.47485">
        <ele>622.3</ele>
        <time>2020-03-27T10:03:58Z</time>
      </trkpt>
      <trkpt lat="43.72545" lon="2.47497">
        <ele>624</ele>
        <time>2020-03-27T10:04:07Z</time>
      </trkpt>
      <trkpt lat="43.7255" lon="2.47509">
        <ele>624.9</ele>
        <time>2020-03-27T10:04:14Z</time>
      </trkpt>
      <trkpt lat="43.72554" lon="2.47521">
        <ele>625.7</ele>
        <time>2020-03-27T10:04:20Z</time>
      </trkpt>
      <trkpt lat="43.72559" lon="2.47531">
        <ele>626.7</ele>
        <time>2020-03-27T10:04:26Z</time>
      </trkpt>
      <trkpt lat="43.72562" lon="2.47544">
        <ele>628</ele>
        <time>2020-03-27T10:04:33Z</time>
      </trkpt>
      <trkpt lat="43.72565" lon="2.47557">
        <ele>629.1</ele>
        <time>2020-03-27T10:04:40Z</time>
      </trkpt>
      <trkpt lat="43.7257" lon="2.47569">
        <ele>630.3</ele>
        <time>2020-03-27T10:04:47Z</time>
      </trkpt>
      <trkpt lat="43.72575" lon="2.47581">
        <ele>631.1</ele>
        <time>2020-03-27T10:04:54Z</time>
      </trkpt>
      <trkpt lat="43.72577" lon="2.47595">
        <ele>631.7</ele>
        <time>2020-03-27T10:05:00Z</time>
      </trkpt>
      <trkpt lat="43.72579" lon="2.47607">
        <ele>632.5</ele>
        <time>2020-03-27T10:05:05Z</time>
      </trkpt>
      <trkpt lat="43.72583" lon="2.4762">
        <ele>634.1</ele>
        <time>2020-03-27T10:05:12Z</time>
      </trkpt>
      <trkpt lat="43.72589" lon="2.4763">
        <ele>635.7</ele>
        <time>2020-03-27T10:05:18Z</time>
      </trkpt>
      <trkpt lat="43.72598" lon="2.47627">
        <ele>637.2</ele>
        <time>2020-03-27T10:05:25Z</time>
      </trkpt>
      <trkpt lat="43.726" lon="2.47612">
        <ele>638.9</ele>
        <time>2020-03-27T10:05:33Z</time>
      </trkpt>
      <trkpt lat="43.72604" lon="2.47598">
        <ele>640.3</ele>
        <time>2020-03-27T10:05:39Z</time>
      </trkpt>
      <trkpt lat="43.72611" lon="2.4759">
        <ele>641.7</ele>
        <time>2020-03-27T10:05:44Z</time>
      </trkpt>
      <trkpt lat="43.7262" lon="2.47589">
        <ele>643.1</ele>
        <time>2020-03-27T10:05:49Z</time>
      </trkpt>
      <trkpt lat="43.72628" lon="2.47597">
        <ele>644.3</ele>
        <time>2020-03-27T10:05:54Z</time>
      </trkpt>
      <trkpt lat="43.72634" lon="2.47609">
        <ele>645.1</ele>
        <time>2020-03-27T10:06:00Z</time>
      </trkpt>
      <trkpt lat="43.72639" lon="2.47622">
        <ele>645.3</ele>
        <time>2020-03-27T10:06:05Z</time>
      </trkpt>
      <trkpt lat="43.72644" lon="2.47634">
        <ele>645.5</ele>
        <time>2020-03-27T10:06:10Z</time>
      </trkpt>
      <trkpt lat="43.72647" lon="2.47646">
        <ele>645.8</ele>
        <time>2020-03-27T10:06:15Z</time>
      </trkpt>
      <trkpt lat="43.72652" lon="2.47659">
        <ele>646.3</ele>
        <time>2020-03-27T10:06:21Z</time>
      </trkpt>
      <trkpt lat="43.72654" lon="2.47672">
        <ele>647.2</ele>
        <time>2020-03-27T10:06:29Z</time>
      </trkpt>
      <trkpt lat="43.72654" lon="2.47685">
        <ele>648.4</ele>
        <time>2020-03-27T10:06:38Z</time>
      </trkpt>
      <trkpt lat="43.72656" lon="2.47698">
        <ele>649.2</ele>
        <time>2020-03-27T10:06:44Z</time>
      </trkpt>
      <trkpt lat="43.72655" lon="2.47711">
        <ele>650.2</ele>
        <time>2020-03-27T10:06:50Z</time>
      </trkpt>
      <trkpt lat="43.72653" lon="2.47724">
        <ele>650.9</ele>
        <time>2020-03-27T10:06:56Z</time>
      </trkpt>
      <trkpt lat="43.72655" lon="2.47737">
        <ele>651.7</ele>
        <time>2020-03-27T10:07:01Z</time>
      </trkpt>
      <trkpt lat="43.72655" lon="2.47751">
        <ele>653.1</ele>
        <time>2020-03-27T10:07:08Z</time>
      </trkpt>
      <trkpt lat="43.72653" lon="2.47764">
        <ele>654.2</ele>
        <time>2020-03-27T10:07:16Z</time>
      </trkpt>
      <trkpt lat="43.72653" lon="2.47778">
        <ele>654.8</ele>
        <time>2020-03-27T10:07:24Z</time>
      </trkpt>
      <trkpt lat="43.72651" lon="2.47792">
        <ele>655.1</ele>
        <time>2020-03-27T10:07:30Z</time>
      </trkpt>
      <trkpt lat="43.7265" lon="2.47806">
        <ele>655.6</ele>
        <time>2020-03-27T10:07:35Z</time>
      </trkpt>
      <trkpt lat="43.72651" lon="2.47818">
        <ele>656</ele>
        <time>2020-03-27T10:07:39Z</time>
      </trkpt>
      <trkpt lat="43.72649" lon="2.47832">
        <ele>656.7</ele>
        <time>2020-03-27T10:07:44Z</time>
      </trkpt>
      <trkpt lat="43.72649" lon="2.47846">
        <ele>657.8</ele>
        <time>2020-03-27T10:07:50Z</time>
      </trkpt>
      <trkpt lat="43.72647" lon="2.47859">
        <ele>658.8</ele>
        <time>2020-03-27T10:07:56Z</time>
      </trkpt>
      <trkpt lat="43.72647" lon="2.47873">
        <ele>659.5</ele>
        <time>2020-03-27T10:08:02Z</time>
      </trkpt>
      <trkpt lat="43.72647" lon="2.47887">
        <ele>659.9</ele>
        <time>2020-03-27T10:08:07Z</time>
      </trkpt>
      <trkpt lat="43.72646" lon="2.47901">
        <ele>660.4</ele>
        <time>2020-03-27T10:08:13Z</time>
      </trkpt>
      <trkpt lat="43.72644" lon="2.47914">
        <ele>660.9</ele>
        <time>2020-03-27T10:08:19Z</time>
      </trkpt>
      <trkpt lat="43.72641" lon="2.47926">
        <ele>661.6</ele>
        <time>2020-03-27T10:08:26Z</time>
      </trkpt>
      <trkpt lat="43.72641" lon="2.4794">
        <ele>662.5</ele>
        <time>2020-03-27T10:08:32Z</time>
      </trkpt>
      <trkpt lat="43.72642" lon="2.47953">
        <ele>663.3</ele>
        <time>2020-03-27T10:08:37Z</time>
      </trkpt>
      <trkpt lat="43.72641" lon="2.47967">
        <ele>664.3</ele>
        <time>2020-03-27T10:08:43Z</time>
      </trkpt>
      <trkpt lat="43.7264" lon="2.47981">
        <ele>665.6</ele>
        <time>2020-03-27T10:08:50Z</time>
      </trkpt>
      <trkpt lat="43.72639" lon="2.47995">
        <ele>667</ele>
        <time>2020-03-27T10:08:56Z</time>
      </trkpt>
      <trkpt lat="43.72636" lon="2.48009">
        <ele>668.3</ele>
        <time>2020-03-27T10:09:01Z</time>
      </trkpt>
      <trkpt lat="43.72635" lon="2.48022">
        <ele>669.6</ele>
        <time>2020-03-27T10:09:06Z</time>
      </trkpt>
      <trkpt lat="43.72635" lon="2.48036">
        <ele>670.9</ele>
        <time>2020-03-27T10:09:11Z</time>
      </trkpt>
      <trkpt lat="43.72635" lon="2.48049">
        <ele>672.2</ele>
        <time>2020-03-27T10:09:16Z</time>
      </trkpt>
      <trkpt lat="43.72634" lon="2.48062">
        <ele>673.2</ele>
        <time>2020-03-27T10:09:21Z</time>
      </trkpt>
      <trkpt lat="43.72635" lon="2.48077">
        <ele>674.1</ele>
        <time>2020-03-27T10:09:26Z</time>
      </trkpt>
      <trkpt lat="43.72634" lon="2.48091">
        <ele>674.7</ele>
        <time>2020-03-27T10:09:30Z</time>
      </trkpt>
      <trkpt lat="43.72633" lon="2.48105">
        <ele>675.3</ele>
        <time>2020-03-27T10:09:34Z</time>
      </trkpt>
      <trkpt lat="43.72634" lon="2.4812">
        <ele>676.1</ele>
        <time>2020-03-27T10:09:38Z</time>
      </trkpt>
      <trkpt lat="43.72634" lon="2.48137">
        <ele>677</ele>
        <time>2020-03-27T10:09:42Z</time>
      </trkpt>
      <trkpt lat="43.72637" lon="2.48151">
        <ele>678</ele>
        <time>2020-03-27T10:09:46Z</time>
      </trkpt>
      <trkpt lat="43.72641" lon="2.48164">
        <ele>678.8</ele>
        <time>2020-03-27T10:09:49Z</time>
      </trkpt>
      <trkpt lat="43.72645" lon="2.48178">
        <ele>679.5</ele>
        <time>2020-03-27T10:09:52Z</time>
      </trkpt>
      <trkpt lat="43.72648" lon="2.48193">
        <ele>680.1</ele>
        <time>2020-03-27T10:09:56Z</time>
      </trkpt>
      <trkpt lat="43.72649" lon="2.48206">
        <ele>680.5</ele>
        <time>2020-03-27T10:09:59Z</time>
      </trkpt>
      <trkpt lat="43.72652" lon="2.48222">
        <ele>681.2</ele>
        <time>2020-03-27T10:10:03Z</time>
      </trkpt>
      <trkpt lat="43.72653" lon="2.48238">
        <ele>682.1</ele>
        <time>2020-03-27T10:10:07Z</time>
      </trkpt>
      <trkpt lat="43.72655" lon="2.48252">
        <ele>683.1</ele>
        <time>2020-03-27T10:10:11Z</time>
      </trkpt>
      <trkpt lat="43.72657" lon="2.48267">
        <ele>684</ele>
        <time>2020-03-27T10:10:15Z</time>
      </trkpt>
      <trkpt lat="43.72667" lon="2.48276">
        <ele>684.5</ele>
        <time>2020-03-27T10:10:18Z</time>
      </trkpt>
      <trkpt lat="43.72676" lon="2.48278">
        <ele>685</ele>
        <time>2020-03-27T10:10:21Z</time>
      </trkpt>
      <trkpt lat="43.72685" lon="2.4828">
        <ele>685.3</ele>
        <time>2020-03-27T10:12:30Z</time>
      </trkpt>
      <trkpt lat="43.72676" lon="2.48278">
        <ele>685.8</ele>
        <time>2020-03-27T10:12:46Z</time>
      </trkpt>
      <trkpt lat="43.72667" lon="2.48279">
        <ele>685.9</ele>
        <time>2020-03-27T10:12:49Z</time>
      </trkpt>
      <trkpt lat="43.72659" lon="2.48289">
        <ele>685.8</ele>
        <time>2020-03-27T10:12:51Z</time>
      </trkpt>
      <trkpt lat="43.72656" lon="2.48304">
        <ele>684.8</ele>
        <time>2020-03-27T10:12:53Z</time>
      </trkpt>
      <trkpt lat="43.72652" lon="2.48321">
        <ele>683.5</ele>
        <time>2020-03-27T10:12:56Z</time>
      </trkpt>
      <trkpt lat="43.72649" lon="2.48333">
        <ele>682.8</ele>
        <time>2020-03-27T10:12:58Z</time>
      </trkpt>
      <trkpt lat="43.72648" lon="2.48346">
        <ele>682</ele>
        <time>2020-03-27T10:13:00Z</time>
      </trkpt>
      <trkpt lat="43.72645" lon="2.4836">
        <ele>681.1</ele>
        <time>2020-03-27T10:13:02Z</time>
      </trkpt>
      <trkpt lat="43.72642" lon="2.48378">
        <ele>680.3</ele>
        <time>2020-03-27T10:13:04Z</time>
      </trkpt>
      <trkpt lat="43.72639" lon="2.48397">
        <ele>679.6</ele>
        <time>2020-03-27T10:13:06Z</time>
      </trkpt>
      <trkpt lat="43.72635" lon="2.48414">
        <ele>679.1</ele>
        <time>2020-03-27T10:13:08Z</time>
      </trkpt>
      <trkpt lat="43.72632" lon="2.48431">
        <ele>678.6</ele>
        <time>2020-03-27T10:13:10Z</time>
      </trkpt>
      <trkpt lat="43.72628" lon="2.48447">
        <ele>678.2</ele>
        <time>2020-03-27T10:13:12Z</time>
      </trkpt>
      <trkpt lat="43.72625" lon="2.48463">
        <ele>677.9</ele>
        <time>2020-03-27T10:13:14Z</time>
      </trkpt>
      <trkpt lat="43.72622" lon="2.48478">
        <ele>677.5</ele>
        <time>2020-03-27T10:13:16Z</time>
      </trkpt>
      <trkpt lat="43.72619" lon="2.48494">
        <ele>677.2</ele>
        <time>2020-03-27T10:13:18Z</time>
      </trkpt>
      <trkpt lat="43.72615" lon="2.4851">
        <ele>676.8</ele>
        <time>2020-03-27T10:13:20Z</time>
      </trkpt>
      <trkpt lat="43.72612" lon="2.48525">
        <ele>676.4</ele>
        <time>2020-03-27T10:13:22Z</time>
      </trkpt>
      <trkpt lat="43.72609" lon="2.48541">
        <ele>676</ele>
        <time>2020-03-27T10:13:24Z</time>
      </trkpt>
      <trkpt lat="43.72605" lon="2.48556">
        <ele>675.6</ele>
        <time>2020-03-27T10:13:26Z</time>
      </trkpt>
      <trkpt lat="43.72603" lon="2.48574">
        <ele>675.1</ele>
        <time>2020-03-27T10:13:28Z</time>
      </trkpt>
      <trkpt lat="43.72603" lon="2.48593">
        <ele>674.6</ele>
        <time>2020-03-27T10:13:30Z</time>
      </trkpt>
      <trkpt lat="43.72608" lon="2.48612">
        <ele>674.1</ele>
        <time>2020-03-27T10:13:32Z</time>
      </trkpt>
      <trkpt lat="43.72612" lon="2.4863">
        <ele>673.7</ele>
        <time>2020-03-27T10:13:34Z</time>
      </trkpt>
      <trkpt lat="43.72615" lon="2.48647">
        <ele>673.2</ele>
        <time>2020-03-27T10:13:36Z</time>
      </trkpt>
      <trkpt lat="43.72615" lon="2.48664">
        <ele>672.7</ele>
        <time>2020-03-27T10:13:38Z</time>
      </trkpt>
      <trkpt lat="43.72612" lon="2.4868">
        <ele>672.2</ele>
        <time>2020-03-27T10:13:40Z</time>
      </trkpt>
      <trkpt lat="43.72607" lon="2.48694">
        <ele>671.8</ele>
        <time>2020-03-27T10:13:42Z</time>
      </trkpt>
      <trkpt lat="43.72603" lon="2.48707">
        <ele>671.5</ele>
        <time>2020-03-27T10:13:44Z</time>
      </trkpt>
      <trkpt lat="43.72601" lon="2.48722">
        <ele>671.1</ele>
        <time>2020-03-27T10:13:46Z</time>
      </trkpt>
      <trkpt lat="43.72597" lon="2.48735">
        <ele>670.8</ele>
        <time>2020-03-27T10:13:48Z</time>
      </trkpt>
      <trkpt lat="43.72593" lon="2.48748">
        <ele>670.4</ele>
        <time>2020-03-27T10:13:50Z</time>
      </trkpt>
      <trkpt lat="43.72589" lon="2.48761">
        <ele>670.1</ele>
        <time>2020-03-27T10:13:52Z</time>
      </trkpt>
      <trkpt lat="43.72585" lon="2.48775">
        <ele>670</ele>
        <time>2020-03-27T10:13:54Z</time>
      </trkpt>
      <trkpt lat="43.7258" lon="2.48786">
        <ele>669.6</ele>
        <time>2020-03-27T10:13:56Z</time>
      </trkpt>
      <trkpt lat="43.72577" lon="2.48798">
        <ele>669.1</ele>
        <time>2020-03-27T10:13:58Z</time>
      </trkpt>
      <trkpt lat="43.72574" lon="2.4881">
        <ele>668.5</ele>
        <time>2020-03-27T10:14:00Z</time>
      </trkpt>
      <trkpt lat="43.7257" lon="2.48826">
        <ele>668.3</ele>
        <time>2020-03-27T10:14:03Z</time>
      </trkpt>
      <trkpt lat="43.72563" lon="2.48838">
        <ele>668.2</ele>
        <time>2020-03-27T10:14:06Z</time>
      </trkpt>
      <trkpt lat="43.72556" lon="2.48851">
        <ele>668.2</ele>
        <time>2020-03-27T10:14:09Z</time>
      </trkpt>
      <trkpt lat="43.72549" lon="2.48865">
        <ele>668.3</ele>
        <time>2020-03-27T10:14:12Z</time>
      </trkpt>
      <trkpt lat="43.72544" lon="2.48876">
        <ele>668.4</ele>
        <time>2020-03-27T10:14:14Z</time>
      </trkpt>
      <trkpt lat="43.72539" lon="2.48887">
        <ele>668.6</ele>
        <time>2020-03-27T10:14:16Z</time>
      </trkpt>
      <trkpt lat="43.72535" lon="2.48899">
        <ele>668.8</ele>
        <time>2020-03-27T10:14:18Z</time>
      </trkpt>
      <trkpt lat="43.72531" lon="2.48911">
        <ele>668.9</ele>
        <time>2020-03-27T10:14:20Z</time>
      </trkpt>
      <trkpt lat="43.72527" lon="2.48922">
        <ele>668.7</ele>
        <time>2020-03-27T10:14:22Z</time>
      </trkpt>
      <trkpt lat="43.72526" lon="2.48935">
        <ele>668.5</ele>
        <time>2020-03-27T10:14:24Z</time>
      </trkpt>
      <trkpt lat="43.72524" lon="2.48949">
        <ele>668.1</ele>
        <time>2020-03-27T10:14:26Z</time>
      </trkpt>
      <trkpt lat="43.72522" lon="2.48962">
        <ele>667.3</ele>
        <time>2020-03-27T10:14:28Z</time>
      </trkpt>
      <trkpt lat="43.72519" lon="2.48974">
        <ele>666.4</ele>
        <time>2020-03-27T10:14:30Z</time>
      </trkpt>
      <trkpt lat="43.72517" lon="2.4899">
        <ele>665.6</ele>
        <time>2020-03-27T10:14:32Z</time>
      </trkpt>
      <trkpt lat="43.72516" lon="2.49008">
        <ele>664.8</ele>
        <time>2020-03-27T10:14:34Z</time>
      </trkpt>
      <trkpt lat="43.72511" lon="2.49024">
        <ele>664.1</ele>
        <time>2020-03-27T10:14:36Z</time>
      </trkpt>
      <trkpt lat="43.72509" lon="2.49044">
        <ele>664.1</ele>
        <time>2020-03-27T10:14:38Z</time>
      </trkpt>
      <trkpt lat="43.72504" lon="2.49061">
        <ele>664.9</ele>
        <time>2020-03-27T10:14:40Z</time>
      </trkpt>
      <trkpt lat="43.725" lon="2.49076">
        <ele>665.8</ele>
        <time>2020-03-27T10:14:42Z</time>
      </trkpt>
      <trkpt lat="43.72494" lon="2.49089">
        <ele>666.7</ele>
        <time>2020-03-27T10:14:44Z</time>
      </trkpt>
      <trkpt lat="43.72487" lon="2.491">
        <ele>667.6</ele>
        <time>2020-03-27T10:14:46Z</time>
      </trkpt>
      <trkpt lat="43.72481" lon="2.4911">
        <ele>668.5</ele>
        <time>2020-03-27T10:14:48Z</time>
      </trkpt>
      <trkpt lat="43.72472" lon="2.49121">
        <ele>668.9</ele>
        <time>2020-03-27T10:14:51Z</time>
      </trkpt>
      <trkpt lat="43.72464" lon="2.49128">
        <ele>669.1</ele>
        <time>2020-03-27T10:14:54Z</time>
      </trkpt>
      <trkpt lat="43.72457" lon="2.49138">
        <ele>669.3</ele>
        <time>2020-03-27T10:14:58Z</time>
      </trkpt>
      <trkpt lat="43.7245" lon="2.49148">
        <ele>669.5</ele>
        <time>2020-03-27T10:15:02Z</time>
      </trkpt>
      <trkpt lat="43.72443" lon="2.49157">
        <ele>669.7</ele>
        <time>2020-03-27T10:15:06Z</time>
      </trkpt>
      <trkpt lat="43.72434" lon="2.49164">
        <ele>669.9</ele>
        <time>2020-03-27T10:15:11Z</time>
      </trkpt>
      <trkpt lat="43.72425" lon="2.49175">
        <ele>670.2</ele>
        <time>2020-03-27T10:15:16Z</time>
      </trkpt>
      <trkpt lat="43.72419" lon="2.49184">
        <ele>670.4</ele>
        <time>2020-03-27T10:15:20Z</time>
      </trkpt>
      <trkpt lat="43.72411" lon="2.49192">
        <ele>670.6</ele>
        <time>2020-03-27T10:15:25Z</time>
      </trkpt>
      <trkpt lat="43.72402" lon="2.492">
        <ele>670.9</ele>
        <time>2020-03-27T10:15:30Z</time>
      </trkpt>
      <trkpt lat="43.72395" lon="2.49209">
        <ele>671.3</ele>
        <time>2020-03-27T10:15:35Z</time>
      </trkpt>
      <trkpt lat="43.72386" lon="2.49217">
        <ele>671.8</ele>
        <time>2020-03-27T10:15:40Z</time>
      </trkpt>
      <trkpt lat="43.72378" lon="2.49226">
        <ele>672.3</ele>
        <time>2020-03-27T10:15:45Z</time>
      </trkpt>
      <trkpt lat="43.7237" lon="2.49234">
        <ele>672.9</ele>
        <time>2020-03-27T10:15:50Z</time>
      </trkpt>
      <trkpt lat="43.72362" lon="2.49242">
        <ele>673.6</ele>
        <time>2020-03-27T10:15:56Z</time>
      </trkpt>
      <trkpt lat="43.72355" lon="2.49251">
        <ele>674.3</ele>
        <time>2020-03-27T10:16:02Z</time>
      </trkpt>
      <trkpt lat="43.72346" lon="2.49257">
        <ele>675</ele>
        <time>2020-03-27T10:16:08Z</time>
      </trkpt>
      <trkpt lat="43.72338" lon="2.49266">
        <ele>675.8</ele>
        <time>2020-03-27T10:16:14Z</time>
      </trkpt>
      <trkpt lat="43.72331" lon="2.49274">
        <ele>676.7</ele>
        <time>2020-03-27T10:16:20Z</time>
      </trkpt>
      <trkpt lat="43.72322" lon="2.49281">
        <ele>677.7</ele>
        <time>2020-03-27T10:16:26Z</time>
      </trkpt>
      <trkpt lat="43.72313" lon="2.49287">
        <ele>678.7</ele>
        <time>2020-03-27T10:16:32Z</time>
      </trkpt>
      <trkpt lat="43.72305" lon="2.49294">
        <ele>679.5</ele>
        <time>2020-03-27T10:16:37Z</time>
      </trkpt>
      <trkpt lat="43.72297" lon="2.49302">
        <ele>680.4</ele>
        <time>2020-03-27T10:16:43Z</time>
      </trkpt>
      <trkpt lat="43.72288" lon="2.49311">
        <ele>681.4</ele>
        <time>2020-03-27T10:16:49Z</time>
      </trkpt>
      <trkpt lat="43.72279" lon="2.4932">
        <ele>682.4</ele>
        <time>2020-03-27T10:16:55Z</time>
      </trkpt>
      <trkpt lat="43.72271" lon="2.49328">
        <ele>683.3</ele>
        <time>2020-03-27T10:17:01Z</time>
      </trkpt>
      <trkpt lat="43.72264" lon="2.49337">
        <ele>684.1</ele>
        <time>2020-03-27T10:17:06Z</time>
      </trkpt>
      <trkpt lat="43.72257" lon="2.49346">
        <ele>684.9</ele>
        <time>2020-03-27T10:17:11Z</time>
      </trkpt>
      <trkpt lat="43.7225" lon="2.49354">
        <ele>685.8</ele>
        <time>2020-03-27T10:17:16Z</time>
      </trkpt>
      <trkpt lat="43.72243" lon="2.49363">
        <ele>686.6</ele>
        <time>2020-03-27T10:17:21Z</time>
      </trkpt>
      <trkpt lat="43.72236" lon="2.49371">
        <ele>687.5</ele>
        <time>2020-03-27T10:17:26Z</time>
      </trkpt>
      <trkpt lat="43.72229" lon="2.49379">
        <ele>688.4</ele>
        <time>2020-03-27T10:17:31Z</time>
      </trkpt>
      <trkpt lat="43.72222" lon="2.49388">
        <ele>689.4</ele>
        <time>2020-03-27T10:17:37Z</time>
      </trkpt>
      <trkpt lat="43.72215" lon="2.49396">
        <ele>690.2</ele>
        <time>2020-03-27T10:17:42Z</time>
      </trkpt>
      <trkpt lat="43.72207" lon="2.49404">
        <ele>691</ele>
        <time>2020-03-27T10:17:47Z</time>
      </trkpt>
      <trkpt lat="43.72199" lon="2.49414">
        <ele>691.8</ele>
        <time>2020-03-27T10:17:52Z</time>
      </trkpt>
      <trkpt lat="43.72191" lon="2.49424">
        <ele>692.5</ele>
        <time>2020-03-27T10:17:56Z</time>
      </trkpt>
      <trkpt lat="43.72185" lon="2.49433">
        <ele>693</ele>
        <time>2020-03-27T10:17:59Z</time>
      </trkpt>
      <trkpt lat="43.72179" lon="2.49443">
        <ele>693.5</ele>
        <time>2020-03-27T10:18:02Z</time>
      </trkpt>
      <trkpt lat="43.72173" lon="2.49456">
        <ele>694.1</ele>
        <time>2020-03-27T10:18:06Z</time>
      </trkpt>
      <trkpt lat="43.72167" lon="2.4947">
        <ele>694.8</ele>
        <time>2020-03-27T10:18:10Z</time>
      </trkpt>
      <trkpt lat="43.72162" lon="2.4948">
        <ele>695.4</ele>
        <time>2020-03-27T10:18:13Z</time>
      </trkpt>
      <trkpt lat="43.72156" lon="2.4949">
        <ele>695.9</ele>
        <time>2020-03-27T10:18:16Z</time>
      </trkpt>
      <trkpt lat="43.7215" lon="2.49502">
        <ele>696.5</ele>
        <time>2020-03-27T10:18:19Z</time>
      </trkpt>
      <trkpt lat="43.72145" lon="2.49513">
        <ele>697</ele>
        <time>2020-03-27T10:18:22Z</time>
      </trkpt>
      <trkpt lat="43.7214" lon="2.49525">
        <ele>697.6</ele>
        <time>2020-03-27T10:18:25Z</time>
      </trkpt>
      <trkpt lat="43.72136" lon="2.49537">
        <ele>698.1</ele>
        <time>2020-03-27T10:18:28Z</time>
      </trkpt>
      <trkpt lat="43.72131" lon="2.49551">
        <ele>698.7</ele>
        <time>2020-03-27T10:18:31Z</time>
      </trkpt>
      <trkpt lat="43.72126" lon="2.49566">
        <ele>701.6</ele>
        <time>2020-03-27T10:18:34Z</time>
      </trkpt>
      <trkpt lat="43.7212" lon="2.49581">
        <ele>702.9</ele>
        <time>2020-03-27T10:18:37Z</time>
      </trkpt>
      <trkpt lat="43.72113" lon="2.49598">
        <ele>703.7</ele>
        <time>2020-03-27T10:18:40Z</time>
      </trkpt>
      <trkpt lat="43.72106" lon="2.49612">
        <ele>704.4</ele>
        <time>2020-03-27T10:18:42Z</time>
      </trkpt>
      <trkpt lat="43.721" lon="2.49624">
        <ele>705.5</ele>
        <time>2020-03-27T10:18:44Z</time>
      </trkpt>
      <trkpt lat="43.72096" lon="2.49635">
        <ele>706.4</ele>
        <time>2020-03-27T10:18:46Z</time>
      </trkpt>
      <trkpt lat="43.72092" lon="2.49647">
        <ele>708.3</ele>
        <time>2020-03-27T10:18:48Z</time>
      </trkpt>
      <trkpt lat="43.72087" lon="2.49659">
        <ele>709.8</ele>
        <time>2020-03-27T10:18:50Z</time>
      </trkpt>
      <trkpt lat="43.72082" lon="2.49676">
        <ele>710.5</ele>
        <time>2020-03-27T10:18:53Z</time>
      </trkpt>
      <trkpt lat="43.7208" lon="2.49692">
        <ele>710.7</ele>
        <time>2020-03-27T10:18:56Z</time>
      </trkpt>
      <trkpt lat="43.72077" lon="2.49708">
        <ele>710.7</ele>
        <time>2020-03-27T10:18:59Z</time>
      </trkpt>
      <trkpt lat="43.72074" lon="2.49723">
        <ele>710.7</ele>
        <time>2020-03-27T10:19:02Z</time>
      </trkpt>
      <trkpt lat="43.72072" lon="2.49737">
        <ele>710.6</ele>
        <time>2020-03-27T10:19:05Z</time>
      </trkpt>
      <trkpt lat="43.72069" lon="2.49752">
        <ele>710.3</ele>
        <time>2020-03-27T10:19:08Z</time>
      </trkpt>
      <trkpt lat="43.72063" lon="2.49769">
        <ele>709.7</ele>
        <time>2020-03-27T10:19:11Z</time>
      </trkpt>
      <trkpt lat="43.72057" lon="2.49782">
        <ele>709</ele>
        <time>2020-03-27T10:19:13Z</time>
      </trkpt>
      <trkpt lat="43.72052" lon="2.49796">
        <ele>708.7</ele>
        <time>2020-03-27T10:19:15Z</time>
      </trkpt>
      <trkpt lat="43.72045" lon="2.49811">
        <ele>708.9</ele>
        <time>2020-03-27T10:19:17Z</time>
      </trkpt>
      <trkpt lat="43.72041" lon="2.49826">
        <ele>709.1</ele>
        <time>2020-03-27T10:19:19Z</time>
      </trkpt>
      <trkpt lat="43.72036" lon="2.49842">
        <ele>709.3</ele>
        <time>2020-03-27T10:19:21Z</time>
      </trkpt>
      <trkpt lat="43.72031" lon="2.4986">
        <ele>709.7</ele>
        <time>2020-03-27T10:19:23Z</time>
      </trkpt>
      <trkpt lat="43.72028" lon="2.49877">
        <ele>710</ele>
        <time>2020-03-27T10:19:25Z</time>
      </trkpt>
      <trkpt lat="43.72027" lon="2.49893">
        <ele>709.1</ele>
        <time>2020-03-27T10:19:27Z</time>
      </trkpt>
      <trkpt lat="43.72027" lon="2.49911">
        <ele>707.5</ele>
        <time>2020-03-27T10:19:29Z</time>
      </trkpt>
      <trkpt lat="43.72028" lon="2.49931">
        <ele>705.8</ele>
        <time>2020-03-27T10:19:31Z</time>
      </trkpt>
      <trkpt lat="43.72029" lon="2.49951">
        <ele>704.5</ele>
        <time>2020-03-27T10:19:33Z</time>
      </trkpt>
      <trkpt lat="43.7203" lon="2.4997">
        <ele>703.8</ele>
        <time>2020-03-27T10:19:35Z</time>
      </trkpt>
      <trkpt lat="43.72032" lon="2.49988">
        <ele>703.2</ele>
        <time>2020-03-27T10:19:37Z</time>
      </trkpt>
      <trkpt lat="43.72038" lon="2.50008">
        <ele>702.6</ele>
        <time>2020-03-27T10:19:39Z</time>
      </trkpt>
      <trkpt lat="43.72042" lon="2.50026">
        <ele>702</ele>
        <time>2020-03-27T10:19:41Z</time>
      </trkpt>
      <trkpt lat="43.72046" lon="2.50039">
        <ele>701.3</ele>
        <time>2020-03-27T10:19:43Z</time>
      </trkpt>
      <trkpt lat="43.72048" lon="2.50055">
        <ele>700.7</ele>
        <time>2020-03-27T10:19:45Z</time>
      </trkpt>
      <trkpt lat="43.72052" lon="2.50071">
        <ele>700.1</ele>
        <time>2020-03-27T10:19:47Z</time>
      </trkpt>
      <trkpt lat="43.72055" lon="2.5009">
        <ele>699.6</ele>
        <time>2020-03-27T10:19:49Z</time>
      </trkpt>
      <trkpt lat="43.72056" lon="2.50108">
        <ele>699.4</ele>
        <time>2020-03-27T10:19:51Z</time>
      </trkpt>
      <trkpt lat="43.72057" lon="2.50123">
        <ele>699.7</ele>
        <time>2020-03-27T10:19:53Z</time>
      </trkpt>
      <trkpt lat="43.72057" lon="2.50138">
        <ele>700.4</ele>
        <time>2020-03-27T10:19:55Z</time>
      </trkpt>
      <trkpt lat="43.72057" lon="2.50155">
        <ele>701.6</ele>
        <time>2020-03-27T10:19:57Z</time>
      </trkpt>
      <trkpt lat="43.72059" lon="2.50172">
        <ele>702.4</ele>
        <time>2020-03-27T10:19:59Z</time>
      </trkpt>
      <trkpt lat="43.72061" lon="2.50191">
        <ele>702.7</ele>
        <time>2020-03-27T10:20:01Z</time>
      </trkpt>
      <trkpt lat="43.72063" lon="2.50211">
        <ele>702.4</ele>
        <time>2020-03-27T10:20:03Z</time>
      </trkpt>
      <trkpt lat="43.72065" lon="2.50233">
        <ele>701.7</ele>
        <time>2020-03-27T10:20:05Z</time>
      </trkpt>
      <trkpt lat="43.72066" lon="2.50255">
        <ele>701.2</ele>
        <time>2020-03-27T10:20:07Z</time>
      </trkpt>
      <trkpt lat="43.72069" lon="2.50277">
        <ele>700.8</ele>
        <time>2020-03-27T10:20:09Z</time>
      </trkpt>
      <trkpt lat="43.72071" lon="2.50298">
        <ele>700.6</ele>
        <time>2020-03-27T10:20:11Z</time>
      </trkpt>
      <trkpt lat="43.72076" lon="2.50316">
        <ele>700.4</ele>
        <time>2020-03-27T10:20:13Z</time>
      </trkpt>
      <trkpt lat="43.72079" lon="2.5033">
        <ele>700.2</ele>
        <time>2020-03-27T10:20:15Z</time>
      </trkpt>
      <trkpt lat="43.7208" lon="2.50345">
        <ele>700.2</ele>
        <time>2020-03-27T10:20:18Z</time>
      </trkpt>
      <trkpt lat="43.7208" lon="2.5036">
        <ele>700.1</ele>
        <time>2020-03-27T10:20:22Z</time>
      </trkpt>
      <trkpt lat="43.72079" lon="2.50373">
        <ele>700.1</ele>
        <time>2020-03-27T10:20:26Z</time>
      </trkpt>
      <trkpt lat="43.72077" lon="2.50386">
        <ele>700.2</ele>
        <time>2020-03-27T10:20:31Z</time>
      </trkpt>
      <trkpt lat="43.72075" lon="2.50399">
        <ele>700.2</ele>
        <time>2020-03-27T10:20:37Z</time>
      </trkpt>
      <trkpt lat="43.72074" lon="2.50413">
        <ele>700.2</ele>
        <time>2020-03-27T10:20:43Z</time>
      </trkpt>
      <trkpt lat="43.72072" lon="2.50427">
        <ele>700.3</ele>
        <time>2020-03-27T10:20:49Z</time>
      </trkpt>
      <trkpt lat="43.7207" lon="2.5044">
        <ele>700.5</ele>
        <time>2020-03-27T10:20:54Z</time>
      </trkpt>
      <trkpt lat="43.72069" lon="2.50454">
        <ele>700.8</ele>
        <time>2020-03-27T10:21:00Z</time>
      </trkpt>
      <trkpt lat="43.7207" lon="2.50468">
        <ele>701.3</ele>
        <time>2020-03-27T10:21:06Z</time>
      </trkpt>
      <trkpt lat="43.72071" lon="2.50482">
        <ele>701.9</ele>
        <time>2020-03-27T10:21:11Z</time>
      </trkpt>
      <trkpt lat="43.72072" lon="2.50494">
        <ele>702.5</ele>
        <time>2020-03-27T10:21:16Z</time>
      </trkpt>
      <trkpt lat="43.72074" lon="2.50509">
        <ele>703.3</ele>
        <time>2020-03-27T10:21:22Z</time>
      </trkpt>
      <trkpt lat="43.72077" lon="2.50521">
        <ele>703.9</ele>
        <time>2020-03-27T10:21:27Z</time>
      </trkpt>
      <trkpt lat="43.72079" lon="2.50533">
        <ele>704.6</ele>
        <time>2020-03-27T10:21:32Z</time>
      </trkpt>
      <trkpt lat="43.72083" lon="2.50546">
        <ele>705.5</ele>
        <time>2020-03-27T10:21:38Z</time>
      </trkpt>
      <trkpt lat="43.72087" lon="2.50558">
        <ele>706.3</ele>
        <time>2020-03-27T10:21:43Z</time>
      </trkpt>
      <trkpt lat="43.72092" lon="2.50568">
        <ele>707</ele>
        <time>2020-03-27T10:21:48Z</time>
      </trkpt>
      <trkpt lat="43.72098" lon="2.50579">
        <ele>707.7</ele>
        <time>2020-03-27T10:21:53Z</time>
      </trkpt>
      <trkpt lat="43.72103" lon="2.50591">
        <ele>708.6</ele>
        <time>2020-03-27T10:21:59Z</time>
      </trkpt>
      <trkpt lat="43.72105" lon="2.50604">
        <ele>709.4</ele>
        <time>2020-03-27T10:22:05Z</time>
      </trkpt>
      <trkpt lat="43.72109" lon="2.50617">
        <ele>710.3</ele>
        <time>2020-03-27T10:22:11Z</time>
      </trkpt>
      <trkpt lat="43.72114" lon="2.50628">
        <ele>710.9</ele>
        <time>2020-03-27T10:22:15Z</time>
      </trkpt>
      <trkpt lat="43.72118" lon="2.50642">
        <ele>711.5</ele>
        <time>2020-03-27T10:22:20Z</time>
      </trkpt>
      <trkpt lat="43.72121" lon="2.50654">
        <ele>712.2</ele>
        <time>2020-03-27T10:22:25Z</time>
      </trkpt>
      <trkpt lat="43.72125" lon="2.50666">
        <ele>712.8</ele>
        <time>2020-03-27T10:22:30Z</time>
      </trkpt>
      <trkpt lat="43.7213" lon="2.50679">
        <ele>713.5</ele>
        <time>2020-03-27T10:22:36Z</time>
      </trkpt>
      <trkpt lat="43.72133" lon="2.50692">
        <ele>714.3</ele>
        <time>2020-03-27T10:22:42Z</time>
      </trkpt>
      <trkpt lat="43.72137" lon="2.50705">
        <ele>715</ele>
        <time>2020-03-27T10:22:48Z</time>
      </trkpt>
      <trkpt lat="43.7214" lon="2.50718">
        <ele>715.6</ele>
        <time>2020-03-27T10:22:54Z</time>
      </trkpt>
      <trkpt lat="43.72144" lon="2.50732">
        <ele>716</ele>
        <time>2020-03-27T10:23:00Z</time>
      </trkpt>
      <trkpt lat="43.72151" lon="2.50744">
        <ele>716.4</ele>
        <time>2020-03-27T10:23:05Z</time>
      </trkpt>
      <trkpt lat="43.72156" lon="2.50756">
        <ele>716.7</ele>
        <time>2020-03-27T10:23:09Z</time>
      </trkpt>
      <trkpt lat="43.7216" lon="2.50771">
        <ele>717.1</ele>
        <time>2020-03-27T10:23:13Z</time>
      </trkpt>
      <trkpt lat="43.72162" lon="2.50787">
        <ele>717.6</ele>
        <time>2020-03-27T10:23:17Z</time>
      </trkpt>
      <trkpt lat="43.72167" lon="2.50798">
        <ele>718.2</ele>
        <time>2020-03-27T10:23:21Z</time>
      </trkpt>
      <trkpt lat="43.72171" lon="2.5081">
        <ele>718.8</ele>
        <time>2020-03-27T10:23:25Z</time>
      </trkpt>
      <trkpt lat="43.72172" lon="2.50823">
        <ele>719.3</ele>
        <time>2020-03-27T10:23:28Z</time>
      </trkpt>
      <trkpt lat="43.72176" lon="2.50836">
        <ele>719.7</ele>
        <time>2020-03-27T10:23:31Z</time>
      </trkpt>
      <trkpt lat="43.72182" lon="2.5085">
        <ele>720.6</ele>
        <time>2020-03-27T10:23:34Z</time>
      </trkpt>
      <trkpt lat="43.72186" lon="2.50866">
        <ele>722.1</ele>
        <time>2020-03-27T10:23:37Z</time>
      </trkpt>
      <trkpt lat="43.72189" lon="2.50882">
        <ele>722.4</ele>
        <time>2020-03-27T10:23:40Z</time>
      </trkpt>
      <trkpt lat="43.72192" lon="2.50897">
        <ele>722.7</ele>
        <time>2020-03-27T10:23:43Z</time>
      </trkpt>
      <trkpt lat="43.72195" lon="2.50909">
        <ele>722.9</ele>
        <time>2020-03-27T10:23:46Z</time>
      </trkpt>
      <trkpt lat="43.722" lon="2.50923">
        <ele>723</ele>
        <time>2020-03-27T10:23:50Z</time>
      </trkpt>
      <trkpt lat="43.72204" lon="2.50937">
        <ele>723.1</ele>
        <time>2020-03-27T10:23:54Z</time>
      </trkpt>
      <trkpt lat="43.72206" lon="2.5095">
        <ele>723.4</ele>
        <time>2020-03-27T10:23:58Z</time>
      </trkpt>
      <trkpt lat="43.72209" lon="2.50963">
        <ele>723.8</ele>
        <time>2020-03-27T10:24:02Z</time>
      </trkpt>
      <trkpt lat="43.7221" lon="2.50976">
        <ele>724.3</ele>
        <time>2020-03-27T10:24:06Z</time>
      </trkpt>
      <trkpt lat="43.72211" lon="2.5099">
        <ele>724.9</ele>
        <time>2020-03-27T10:24:10Z</time>
      </trkpt>
      <trkpt lat="43.72213" lon="2.51003">
        <ele>725.9</ele>
        <time>2020-03-27T10:24:15Z</time>
      </trkpt>
      <trkpt lat="43.72215" lon="2.51018">
        <ele>727</ele>
        <time>2020-03-27T10:24:20Z</time>
      </trkpt>
      <trkpt lat="43.72217" lon="2.51032">
        <ele>727.9</ele>
        <time>2020-03-27T10:24:24Z</time>
      </trkpt>
      <trkpt lat="43.72216" lon="2.51047">
        <ele>728.7</ele>
        <time>2020-03-27T10:24:28Z</time>
      </trkpt>
      <trkpt lat="43.72216" lon="2.51064">
        <ele>729.5</ele>
        <time>2020-03-27T10:24:32Z</time>
      </trkpt>
      <trkpt lat="43.72217" lon="2.51077">
        <ele>730.1</ele>
        <time>2020-03-27T10:24:35Z</time>
      </trkpt>
      <trkpt lat="43.72218" lon="2.51093">
        <ele>730.8</ele>
        <time>2020-03-27T10:24:39Z</time>
      </trkpt>
      <trkpt lat="43.72215" lon="2.51105">
        <ele>731.3</ele>
        <time>2020-03-27T10:24:42Z</time>
      </trkpt>
      <trkpt lat="43.72211" lon="2.51119">
        <ele>732</ele>
        <time>2020-03-27T10:24:46Z</time>
      </trkpt>
      <trkpt lat="43.72207" lon="2.51131">
        <ele>732.5</ele>
        <time>2020-03-27T10:24:50Z</time>
      </trkpt>
      <trkpt lat="43.72201" lon="2.51143">
        <ele>732.8</ele>
        <time>2020-03-27T10:24:54Z</time>
      </trkpt>
      <trkpt lat="43.72197" lon="2.51157">
        <ele>732.9</ele>
        <time>2020-03-27T10:24:58Z</time>
      </trkpt>
      <trkpt lat="43.72193" lon="2.51171">
        <ele>732.7</ele>
        <time>2020-03-27T10:25:01Z</time>
      </trkpt>
      <trkpt lat="43.72192" lon="2.51186">
        <ele>732.6</ele>
        <time>2020-03-27T10:25:04Z</time>
      </trkpt>
      <trkpt lat="43.72188" lon="2.51201">
        <ele>732.4</ele>
        <time>2020-03-27T10:25:07Z</time>
      </trkpt>
      <trkpt lat="43.72186" lon="2.51218">
        <ele>732.4</ele>
        <time>2020-03-27T10:25:10Z</time>
      </trkpt>
      <trkpt lat="43.72182" lon="2.51233">
        <ele>732.5</ele>
        <time>2020-03-27T10:25:13Z</time>
      </trkpt>
      <trkpt lat="43.7218" lon="2.5125">
        <ele>732.6</ele>
        <time>2020-03-27T10:25:16Z</time>
      </trkpt>
      <trkpt lat="43.72177" lon="2.51266">
        <ele>733.1</ele>
        <time>2020-03-27T10:25:20Z</time>
      </trkpt>
      <trkpt lat="43.72176" lon="2.51279">
        <ele>733.6</ele>
        <time>2020-03-27T10:25:23Z</time>
      </trkpt>
      <trkpt lat="43.72175" lon="2.51293">
        <ele>734.2</ele>
        <time>2020-03-27T10:25:26Z</time>
      </trkpt>
      <trkpt lat="43.72175" lon="2.51307">
        <ele>734.8</ele>
        <time>2020-03-27T10:25:29Z</time>
      </trkpt>
      <trkpt lat="43.72175" lon="2.51321">
        <ele>735.4</ele>
        <time>2020-03-27T10:25:32Z</time>
      </trkpt>
      <trkpt lat="43.72175" lon="2.51335">
        <ele>735.9</ele>
        <time>2020-03-27T10:25:35Z</time>
      </trkpt>
      <trkpt lat="43.72175" lon="2.51352">
        <ele>736.5</ele>
        <time>2020-03-27T10:25:39Z</time>
      </trkpt>
      <trkpt lat="43.72173" lon="2.51365">
        <ele>736.9</ele>
        <time>2020-03-27T10:25:42Z</time>
      </trkpt>
      <trkpt lat="43.72171" lon="2.51378">
        <ele>737.3</ele>
        <time>2020-03-27T10:25:45Z</time>
      </trkpt>
      <trkpt lat="43.72168" lon="2.51392">
        <ele>738</ele>
        <time>2020-03-27T10:25:49Z</time>
      </trkpt>
      <trkpt lat="43.72166" lon="2.51406">
        <ele>738.7</ele>
        <time>2020-03-27T10:25:53Z</time>
      </trkpt>
      <trkpt lat="43.72166" lon="2.51422">
        <ele>739.4</ele>
        <time>2020-03-27T10:25:57Z</time>
      </trkpt>
      <trkpt lat="43.72166" lon="2.51436">
        <ele>740.2</ele>
        <time>2020-03-27T10:26:02Z</time>
      </trkpt>
      <trkpt lat="43.72169" lon="2.51449">
        <ele>740.8</ele>
        <time>2020-03-27T10:26:06Z</time>
      </trkpt>
      <trkpt lat="43.7217" lon="2.51463">
        <ele>741.6</ele>
        <time>2020-03-27T10:26:11Z</time>
      </trkpt>
      <trkpt lat="43.72173" lon="2.51477">
        <ele>742.4</ele>
        <time>2020-03-27T10:26:16Z</time>
      </trkpt>
      <trkpt lat="43.72175" lon="2.51491">
        <ele>743.2</ele>
        <time>2020-03-27T10:26:21Z</time>
      </trkpt>
      <trkpt lat="43.72177" lon="2.51504">
        <ele>743.9</ele>
        <time>2020-03-27T10:26:26Z</time>
      </trkpt>
      <trkpt lat="43.7218" lon="2.51516">
        <ele>744.5</ele>
        <time>2020-03-27T10:26:30Z</time>
      </trkpt>
      <trkpt lat="43.72182" lon="2.51531">
        <ele>745.4</ele>
        <time>2020-03-27T10:26:35Z</time>
      </trkpt>
      <trkpt lat="43.72184" lon="2.51545">
        <ele>746.4</ele>
        <time>2020-03-27T10:26:40Z</time>
      </trkpt>
      <trkpt lat="43.72187" lon="2.51557">
        <ele>747.3</ele>
        <time>2020-03-27T10:26:45Z</time>
      </trkpt>
      <trkpt lat="43.7219" lon="2.5157">
        <ele>748.3</ele>
        <time>2020-03-27T10:26:50Z</time>
      </trkpt>
      <trkpt lat="43.72192" lon="2.51585">
        <ele>749.6</ele>
        <time>2020-03-27T10:26:56Z</time>
      </trkpt>
      <trkpt lat="43.72194" lon="2.51597">
        <ele>750.6</ele>
        <time>2020-03-27T10:27:01Z</time>
      </trkpt>
      <trkpt lat="43.72195" lon="2.51611">
        <ele>751.6</ele>
        <time>2020-03-27T10:27:07Z</time>
      </trkpt>
      <trkpt lat="43.72199" lon="2.51623">
        <ele>752.3</ele>
        <time>2020-03-27T10:27:12Z</time>
      </trkpt>
      <trkpt lat="43.72203" lon="2.51635">
        <ele>753</ele>
        <time>2020-03-27T10:27:17Z</time>
      </trkpt>
      <trkpt lat="43.72205" lon="2.5165">
        <ele>753.6</ele>
        <time>2020-03-27T10:27:22Z</time>
      </trkpt>
      <trkpt lat="43.72208" lon="2.51662">
        <ele>754</ele>
        <time>2020-03-27T10:27:26Z</time>
      </trkpt>
      <trkpt lat="43.7221" lon="2.51677">
        <ele>754.8</ele>
        <time>2020-03-27T10:27:31Z</time>
      </trkpt>
      <trkpt lat="43.72212" lon="2.5169">
        <ele>755.5</ele>
        <time>2020-03-27T10:27:35Z</time>
      </trkpt>
      <trkpt lat="43.72214" lon="2.51703">
        <ele>756.4</ele>
        <time>2020-03-27T10:27:40Z</time>
      </trkpt>
      <trkpt lat="43.72215" lon="2.51718">
        <ele>757.2</ele>
        <time>2020-03-27T10:27:45Z</time>
      </trkpt>
      <trkpt lat="43.72218" lon="2.51732">
        <ele>757.9</ele>
        <time>2020-03-27T10:27:50Z</time>
      </trkpt>
      <trkpt lat="43.72219" lon="2.51746">
        <ele>758.7</ele>
        <time>2020-03-27T10:27:55Z</time>
      </trkpt>
      <trkpt lat="43.72221" lon="2.51761">
        <ele>759.6</ele>
        <time>2020-03-27T10:28:00Z</time>
      </trkpt>
      <trkpt lat="43.72222" lon="2.51776">
        <ele>760.5</ele>
        <time>2020-03-27T10:28:05Z</time>
      </trkpt>
      <trkpt lat="43.72222" lon="2.5179">
        <ele>761.3</ele>
        <time>2020-03-27T10:28:10Z</time>
      </trkpt>
      <trkpt lat="43.72224" lon="2.51805">
        <ele>761.9</ele>
        <time>2020-03-27T10:28:15Z</time>
      </trkpt>
      <trkpt lat="43.72224" lon="2.5182">
        <ele>762.6</ele>
        <time>2020-03-27T10:28:20Z</time>
      </trkpt>
      <trkpt lat="43.72223" lon="2.51836">
        <ele>763.3</ele>
        <time>2020-03-27T10:28:25Z</time>
      </trkpt>
      <trkpt lat="43.72221" lon="2.51848">
        <ele>763.8</ele>
        <time>2020-03-27T10:28:29Z</time>
      </trkpt>
      <trkpt lat="43.72218" lon="2.51862">
        <ele>764.6</ele>
        <time>2020-03-27T10:28:34Z</time>
      </trkpt>
      <trkpt lat="43.72215" lon="2.51875">
        <ele>765.4</ele>
        <time>2020-03-27T10:28:39Z</time>
      </trkpt>
      <trkpt lat="43.72211" lon="2.51889">
        <ele>766.2</ele>
        <time>2020-03-27T10:28:44Z</time>
      </trkpt>
      <trkpt lat="43.72206" lon="2.51904">
        <ele>766.9</ele>
        <time>2020-03-27T10:28:49Z</time>
      </trkpt>
      <trkpt lat="43.722" lon="2.51914">
        <ele>767.3</ele>
        <time>2020-03-27T10:28:52Z</time>
      </trkpt>
      <trkpt lat="43.72193" lon="2.51925">
        <ele>767.8</ele>
        <time>2020-03-27T10:28:55Z</time>
      </trkpt>
      <trkpt lat="43.72186" lon="2.51941">
        <ele>769.6</ele>
        <time>2020-03-27T10:28:58Z</time>
      </trkpt>
      <trkpt lat="43.72181" lon="2.51952">
        <ele>771</ele>
        <time>2020-03-27T10:29:00Z</time>
      </trkpt>
      <trkpt lat="43.72178" lon="2.51964">
        <ele>772</ele>
        <time>2020-03-27T10:29:02Z</time>
      </trkpt>
      <trkpt lat="43.72177" lon="2.51982">
        <ele>772.5</ele>
        <time>2020-03-27T10:29:05Z</time>
      </trkpt>
      <trkpt lat="43.72178" lon="2.51995">
        <ele>772.7</ele>
        <time>2020-03-27T10:29:07Z</time>
      </trkpt>
      <trkpt lat="43.72179" lon="2.52009">
        <ele>772.9</ele>
        <time>2020-03-27T10:29:09Z</time>
      </trkpt>
      <trkpt lat="43.72181" lon="2.52022">
        <ele>772.9</ele>
        <time>2020-03-27T10:29:11Z</time>
      </trkpt>
      <trkpt lat="43.72186" lon="2.52036">
        <ele>773.1</ele>
        <time>2020-03-27T10:29:13Z</time>
      </trkpt>
      <trkpt lat="43.72194" lon="2.52048">
        <ele>774.6</ele>
        <time>2020-03-27T10:29:16Z</time>
      </trkpt>
      <trkpt lat="43.72202" lon="2.52055">
        <ele>775.9</ele>
        <time>2020-03-27T10:29:18Z</time>
      </trkpt>
      <trkpt lat="43.72211" lon="2.52063">
        <ele>777</ele>
        <time>2020-03-27T10:29:20Z</time>
      </trkpt>
      <trkpt lat="43.72221" lon="2.52069">
        <ele>777.7</ele>
        <time>2020-03-27T10:29:22Z</time>
      </trkpt>
      <trkpt lat="43.72228" lon="2.52077">
        <ele>778.6</ele>
        <time>2020-03-27T10:29:24Z</time>
      </trkpt>
      <trkpt lat="43.72236" lon="2.52085">
        <ele>778.9</ele>
        <time>2020-03-27T10:29:26Z</time>
      </trkpt>
      <trkpt lat="43.72243" lon="2.52095">
        <ele>779</ele>
        <time>2020-03-27T10:29:28Z</time>
      </trkpt>
      <trkpt lat="43.72249" lon="2.52104">
        <ele>779</ele>
        <time>2020-03-27T10:29:30Z</time>
      </trkpt>
      <trkpt lat="43.72258" lon="2.52118">
        <ele>778.9</ele>
        <time>2020-03-27T10:29:33Z</time>
      </trkpt>
      <trkpt lat="43.72265" lon="2.52127">
        <ele>778.9</ele>
        <time>2020-03-27T10:29:35Z</time>
      </trkpt>
      <trkpt lat="43.72272" lon="2.52136">
        <ele>778.4</ele>
        <time>2020-03-27T10:29:37Z</time>
      </trkpt>
      <trkpt lat="43.72276" lon="2.52151">
        <ele>778.1</ele>
        <time>2020-03-27T10:29:40Z</time>
      </trkpt>
      <trkpt lat="43.72282" lon="2.52168">
        <ele>776.3</ele>
        <time>2020-03-27T10:29:43Z</time>
      </trkpt>
      <trkpt lat="43.72288" lon="2.52184">
        <ele>775.8</ele>
        <time>2020-03-27T10:29:46Z</time>
      </trkpt>
      <trkpt lat="43.72293" lon="2.52195">
        <ele>775.6</ele>
        <time>2020-03-27T10:29:48Z</time>
      </trkpt>
      <trkpt lat="43.72299" lon="2.52212">
        <ele>775.5</ele>
        <time>2020-03-27T10:29:51Z</time>
      </trkpt>
      <trkpt lat="43.72304" lon="2.52223">
        <ele>775.7</ele>
        <time>2020-03-27T10:29:53Z</time>
      </trkpt>
      <trkpt lat="43.72308" lon="2.52235">
        <ele>776.3</ele>
        <time>2020-03-27T10:29:55Z</time>
      </trkpt>
      <trkpt lat="43.72312" lon="2.52247">
        <ele>777</ele>
        <time>2020-03-27T10:29:57Z</time>
      </trkpt>
      <trkpt lat="43.72316" lon="2.5226">
        <ele>777.5</ele>
        <time>2020-03-27T10:29:59Z</time>
      </trkpt>
      <trkpt lat="43.72319" lon="2.52274">
        <ele>778</ele>
        <time>2020-03-27T10:30:01Z</time>
      </trkpt>
      <trkpt lat="43.72324" lon="2.52289">
        <ele>778.4</ele>
        <time>2020-03-27T10:30:03Z</time>
      </trkpt>
      <trkpt lat="43.72326" lon="2.52305">
        <ele>778.6</ele>
        <time>2020-03-27T10:30:05Z</time>
      </trkpt>
      <trkpt lat="43.72327" lon="2.52322">
        <ele>778.5</ele>
        <time>2020-03-27T10:30:07Z</time>
      </trkpt>
      <trkpt lat="43.72324" lon="2.52338">
        <ele>778</ele>
        <time>2020-03-27T10:30:09Z</time>
      </trkpt>
      <trkpt lat="43.72323" lon="2.52354">
        <ele>777.2</ele>
        <time>2020-03-27T10:30:11Z</time>
      </trkpt>
      <trkpt lat="43.7232" lon="2.52369">
        <ele>776.3</ele>
        <time>2020-03-27T10:30:13Z</time>
      </trkpt>
      <trkpt lat="43.72315" lon="2.52384">
        <ele>775.4</ele>
        <time>2020-03-27T10:30:15Z</time>
      </trkpt>
      <trkpt lat="43.72309" lon="2.52399">
        <ele>774.4</ele>
        <time>2020-03-27T10:30:17Z</time>
      </trkpt>
      <trkpt lat="43.72301" lon="2.52413">
        <ele>773.4</ele>
        <time>2020-03-27T10:30:19Z</time>
      </trkpt>
      <trkpt lat="43.72294" lon="2.52428">
        <ele>772.4</ele>
        <time>2020-03-27T10:30:21Z</time>
      </trkpt>
      <trkpt lat="43.72288" lon="2.5244">
        <ele>771.5</ele>
        <time>2020-03-27T10:30:23Z</time>
      </trkpt>
      <trkpt lat="43.72282" lon="2.52452">
        <ele>771.2</ele>
        <time>2020-03-27T10:30:26Z</time>
      </trkpt>
      <trkpt lat="43.72277" lon="2.52466">
        <ele>771.3</ele>
        <time>2020-03-27T10:30:30Z</time>
      </trkpt>
      <trkpt lat="43.7227" lon="2.5248">
        <ele>771.3</ele>
        <time>2020-03-27T10:30:34Z</time>
      </trkpt>
      <trkpt lat="43.72264" lon="2.5249">
        <ele>769.2</ele>
        <time>2020-03-27T10:30:36Z</time>
      </trkpt>
      <trkpt lat="43.72258" lon="2.525">
        <ele>765.5</ele>
        <time>2020-03-27T10:30:38Z</time>
      </trkpt>
      <trkpt lat="43.72252" lon="2.52511">
        <ele>762</ele>
        <time>2020-03-27T10:30:40Z</time>
      </trkpt>
      <trkpt lat="43.72247" lon="2.52523">
        <ele>758.9</ele>
        <time>2020-03-27T10:30:42Z</time>
      </trkpt>
      <trkpt lat="43.72239" lon="2.52533">
        <ele>756.6</ele>
        <time>2020-03-27T10:30:44Z</time>
      </trkpt>
      <trkpt lat="43.72234" lon="2.52545">
        <ele>755.8</ele>
        <time>2020-03-27T10:30:46Z</time>
      </trkpt>
      <trkpt lat="43.72229" lon="2.52556">
        <ele>753.9</ele>
        <time>2020-03-27T10:30:48Z</time>
      </trkpt>
      <trkpt lat="43.72222" lon="2.52574">
        <ele>752</ele>
        <time>2020-03-27T10:30:51Z</time>
      </trkpt>
      <trkpt lat="43.72216" lon="2.52584">
        <ele>751.5</ele>
        <time>2020-03-27T10:30:53Z</time>
      </trkpt>
      <trkpt lat="43.72212" lon="2.526">
        <ele>751.2</ele>
        <time>2020-03-27T10:30:56Z</time>
      </trkpt>
      <trkpt lat="43.72209" lon="2.52614">
        <ele>751.3</ele>
        <time>2020-03-27T10:30:59Z</time>
      </trkpt>
      <trkpt lat="43.72201" lon="2.52606">
        <ele>753.6</ele>
        <time>2020-03-27T10:32:07Z</time>
      </trkpt>
      <trkpt lat="43.72197" lon="2.52592">
        <ele>754.4</ele>
        <time>2020-03-27T10:32:11Z</time>
      </trkpt>
      <trkpt lat="43.72192" lon="2.5258">
        <ele>755.4</ele>
        <time>2020-03-27T10:32:15Z</time>
      </trkpt>
      <trkpt lat="43.72186" lon="2.52568">
        <ele>756.5</ele>
        <time>2020-03-27T10:32:19Z</time>
      </trkpt>
      <trkpt lat="43.72181" lon="2.52558">
        <ele>757.6</ele>
        <time>2020-03-27T10:32:23Z</time>
      </trkpt>
      <trkpt lat="43.72177" lon="2.52545">
        <ele>758.9</ele>
        <time>2020-03-27T10:32:28Z</time>
      </trkpt>
      <trkpt lat="43.72174" lon="2.52534">
        <ele>760.1</ele>
        <time>2020-03-27T10:32:33Z</time>
      </trkpt>
      <trkpt lat="43.72168" lon="2.52522">
        <ele>761.4</ele>
        <time>2020-03-27T10:32:38Z</time>
      </trkpt>
      <trkpt lat="43.72162" lon="2.52511">
        <ele>763</ele>
        <time>2020-03-27T10:32:44Z</time>
      </trkpt>
      <trkpt lat="43.72155" lon="2.52502">
        <ele>764.3</ele>
        <time>2020-03-27T10:32:50Z</time>
      </trkpt>
      <trkpt lat="43.72148" lon="2.52494">
        <ele>765.4</ele>
        <time>2020-03-27T10:32:56Z</time>
      </trkpt>
      <trkpt lat="43.72139" lon="2.52487">
        <ele>766.6</ele>
        <time>2020-03-27T10:33:02Z</time>
      </trkpt>
      <trkpt lat="43.7213" lon="2.52482">
        <ele>767.4</ele>
        <time>2020-03-27T10:33:08Z</time>
      </trkpt>
      <trkpt lat="43.72122" lon="2.52474">
        <ele>767.9</ele>
        <time>2020-03-27T10:33:13Z</time>
      </trkpt>
      <trkpt lat="43.72114" lon="2.52466">
        <ele>768.5</ele>
        <time>2020-03-27T10:33:17Z</time>
      </trkpt>
      <trkpt lat="43.72107" lon="2.52453">
        <ele>769.3</ele>
        <time>2020-03-27T10:33:22Z</time>
      </trkpt>
      <trkpt lat="43.72101" lon="2.52441">
        <ele>770.1</ele>
        <time>2020-03-27T10:33:26Z</time>
      </trkpt>
      <trkpt lat="43.72095" lon="2.52428">
        <ele>771.1</ele>
        <time>2020-03-27T10:33:32Z</time>
      </trkpt>
      <trkpt lat="43.7209" lon="2.52416">
        <ele>771.7</ele>
        <time>2020-03-27T10:33:36Z</time>
      </trkpt>
      <trkpt lat="43.72086" lon="2.52404">
        <ele>772.1</ele>
        <time>2020-03-27T10:33:39Z</time>
      </trkpt>
      <trkpt lat="43.72081" lon="2.52391">
        <ele>772.5</ele>
        <time>2020-03-27T10:33:42Z</time>
      </trkpt>
      <trkpt lat="43.72076" lon="2.5238">
        <ele>772.9</ele>
        <time>2020-03-27T10:33:45Z</time>
      </trkpt>
      <trkpt lat="43.72072" lon="2.52368">
        <ele>773.2</ele>
        <time>2020-03-27T10:33:48Z</time>
      </trkpt>
      <trkpt lat="43.72069" lon="2.52354">
        <ele>773.5</ele>
        <time>2020-03-27T10:33:51Z</time>
      </trkpt>
      <trkpt lat="43.72065" lon="2.52342">
        <ele>774</ele>
        <time>2020-03-27T10:33:54Z</time>
      </trkpt>
      <trkpt lat="43.72062" lon="2.52329">
        <ele>774.6</ele>
        <time>2020-03-27T10:33:57Z</time>
      </trkpt>
      <trkpt lat="43.72058" lon="2.52316">
        <ele>775.2</ele>
        <time>2020-03-27T10:34:00Z</time>
      </trkpt>
      <trkpt lat="43.72055" lon="2.52302">
        <ele>775.7</ele>
        <time>2020-03-27T10:34:03Z</time>
      </trkpt>
      <trkpt lat="43.72049" lon="2.52289">
        <ele>776.3</ele>
        <time>2020-03-27T10:34:06Z</time>
      </trkpt>
      <trkpt lat="43.72043" lon="2.5228">
        <ele>776.9</ele>
        <time>2020-03-27T10:34:09Z</time>
      </trkpt>
      <trkpt lat="43.72034" lon="2.5227">
        <ele>777.7</ele>
        <time>2020-03-27T10:34:13Z</time>
      </trkpt>
      <trkpt lat="43.72024" lon="2.52259">
        <ele>778.5</ele>
        <time>2020-03-27T10:34:17Z</time>
      </trkpt>
      <trkpt lat="43.72018" lon="2.5225">
        <ele>779.2</ele>
        <time>2020-03-27T10:34:20Z</time>
      </trkpt>
      <trkpt lat="43.7201" lon="2.52239">
        <ele>780</ele>
        <time>2020-03-27T10:34:24Z</time>
      </trkpt>
      <trkpt lat="43.72003" lon="2.52231">
        <ele>780.5</ele>
        <time>2020-03-27T10:34:27Z</time>
      </trkpt>
      <trkpt lat="43.71994" lon="2.52219">
        <ele>781.3</ele>
        <time>2020-03-27T10:34:31Z</time>
      </trkpt>
      <trkpt lat="43.71988" lon="2.5221">
        <ele>781.9</ele>
        <time>2020-03-27T10:34:34Z</time>
      </trkpt>
      <trkpt lat="43.71982" lon="2.52198">
        <ele>782.4</ele>
        <time>2020-03-27T10:34:37Z</time>
      </trkpt>
      <trkpt lat="43.71972" lon="2.52188">
        <ele>783</ele>
        <time>2020-03-27T10:34:40Z</time>
      </trkpt>
      <trkpt lat="43.71964" lon="2.5218">
        <ele>783.4</ele>
        <time>2020-03-27T10:34:42Z</time>
      </trkpt>
      <trkpt lat="43.71953" lon="2.52173">
        <ele>783.9</ele>
        <time>2020-03-27T10:34:45Z</time>
      </trkpt>
      <trkpt lat="43.71941" lon="2.5217">
        <ele>785</ele>
        <time>2020-03-27T10:34:48Z</time>
      </trkpt>
      <trkpt lat="43.71928" lon="2.52166">
        <ele>785.7</ele>
        <time>2020-03-27T10:34:51Z</time>
      </trkpt>
      <trkpt lat="43.71918" lon="2.52161">
        <ele>786.1</ele>
        <time>2020-03-27T10:34:54Z</time>
      </trkpt>
      <trkpt lat="43.71909" lon="2.52155">
        <ele>786.5</ele>
        <time>2020-03-27T10:34:57Z</time>
      </trkpt>
      <trkpt lat="43.71902" lon="2.52148">
        <ele>786.9</ele>
        <time>2020-03-27T10:35:00Z</time>
      </trkpt>
      <trkpt lat="43.71894" lon="2.5214">
        <ele>787.2</ele>
        <time>2020-03-27T10:35:03Z</time>
      </trkpt>
      <trkpt lat="43.71884" lon="2.52131">
        <ele>787.6</ele>
        <time>2020-03-27T10:35:07Z</time>
      </trkpt>
      <trkpt lat="43.71876" lon="2.52125">
        <ele>788</ele>
        <time>2020-03-27T10:35:10Z</time>
      </trkpt>
      <trkpt lat="43.71868" lon="2.52117">
        <ele>788.3</ele>
        <time>2020-03-27T10:35:13Z</time>
      </trkpt>
      <trkpt lat="43.7186" lon="2.5211">
        <ele>788.7</ele>
        <time>2020-03-27T10:35:16Z</time>
      </trkpt>
      <trkpt lat="43.71852" lon="2.52103">
        <ele>789</ele>
        <time>2020-03-27T10:35:19Z</time>
      </trkpt>
      <trkpt lat="43.71843" lon="2.52093">
        <ele>789.5</ele>
        <time>2020-03-27T10:35:23Z</time>
      </trkpt>
      <trkpt lat="43.71834" lon="2.52086">
        <ele>790</ele>
        <time>2020-03-27T10:35:27Z</time>
      </trkpt>
      <trkpt lat="43.71826" lon="2.52076">
        <ele>790.8</ele>
        <time>2020-03-27T10:35:33Z</time>
      </trkpt>
      <trkpt lat="43.7182" lon="2.52067">
        <ele>791.5</ele>
        <time>2020-03-27T10:35:38Z</time>
      </trkpt>
      <trkpt lat="43.71815" lon="2.52054">
        <ele>792.3</ele>
        <time>2020-03-27T10:35:43Z</time>
      </trkpt>
      <trkpt lat="43.7181" lon="2.52042">
        <ele>793.1</ele>
        <time>2020-03-27T10:35:48Z</time>
      </trkpt>
      <trkpt lat="43.71804" lon="2.52028">
        <ele>793.9</ele>
        <time>2020-03-27T10:35:53Z</time>
      </trkpt>
      <trkpt lat="43.71799" lon="2.52018">
        <ele>794.5</ele>
        <time>2020-03-27T10:35:57Z</time>
      </trkpt>
      <trkpt lat="43.71794" lon="2.52004">
        <ele>794.9</ele>
        <time>2020-03-27T10:36:01Z</time>
      </trkpt>
      <trkpt lat="43.71789" lon="2.51992">
        <ele>795.2</ele>
        <time>2020-03-27T10:36:04Z</time>
      </trkpt>
      <trkpt lat="43.71784" lon="2.5198">
        <ele>795.5</ele>
        <time>2020-03-27T10:36:07Z</time>
      </trkpt>
      <trkpt lat="43.71777" lon="2.5197">
        <ele>796.4</ele>
        <time>2020-03-27T10:36:10Z</time>
      </trkpt>
      <trkpt lat="43.71765" lon="2.51977">
        <ele>796.7</ele>
        <time>2020-03-27T10:36:13Z</time>
      </trkpt>
      <trkpt lat="43.71755" lon="2.51985">
        <ele>796.9</ele>
        <time>2020-03-27T10:36:16Z</time>
      </trkpt>
      <trkpt lat="43.71745" lon="2.51993">
        <ele>797.5</ele>
        <time>2020-03-27T10:36:19Z</time>
      </trkpt>
      <trkpt lat="43.71735" lon="2.51998">
        <ele>798</ele>
        <time>2020-03-27T10:36:22Z</time>
      </trkpt>
      <trkpt lat="43.71724" lon="2.52">
        <ele>798.3</ele>
        <time>2020-03-27T10:36:26Z</time>
      </trkpt>
      <trkpt lat="43.71716" lon="2.52007">
        <ele>799</ele>
        <time>2020-03-27T10:36:32Z</time>
      </trkpt>
      <trkpt lat="43.71711" lon="2.52021">
        <ele>800.2</ele>
        <time>2020-03-27T10:36:41Z</time>
      </trkpt>
      <trkpt lat="43.71713" lon="2.52031">
        <ele>800.8</ele>
        <time>2020-03-27T10:37:31Z</time>
      </trkpt>
    </trkseg>
  </trk>
</gpx>